
Distance (Route):
Temperature : 0°C
Humidity : 0%
Pressure : 0hPa| Receiver | Frames | First received | Last received |
|---|---|---|---|
| 9A1FER-3 | 215 | 2026-09-02 11:59:54 | 2026-09-02 13:04:28 |
| 9A1FER-10 | 203 | 2026-09-02 12:04:59 | 2026-09-02 13:02:41 |
| 9A1FER-15 | 193 | 2026-09-02 12:09:35 | 2026-09-02 13:02:21 |
| OM5KV | 46 | 2026-09-02 12:05:45 | 2026-09-02 12:10:05 |
| PETON7-10 | 36 | 2026-09-02 12:38:30 | 2026-09-02 12:50:10 |
| OE3JTB-15 | 17 | 2026-09-02 12:11:57 | 2026-09-02 12:38:00 |
| HA6NAB-11 | 5 | 2026-09-02 12:29:56 | 2026-09-02 12:30:25 |
| Receiver | Date | Latitude | Longitude | Direction | Speed | Altitude | Climb | Temperature | Humidity | Pressure | Voltage | Killtimer | Uptime | BKT | XDATA |
|---|---|---|---|---|---|---|---|---|---|---|---|---|---|---|---|
| 9A1FER-3 | 2026-09-02 13:04:28 | 46.00574 | 15.31114 | 44° | 7km/h | 2162m | -12.4m/s | 0°C | 0% | 0hPa | 0V | 00:00:00 | 00:00:00 | 00:00:00 | |
| 9A1FER-10 | 2026-09-02 13:02:41 | 46.00530 | 15.30610 | 123° | 27km/h | 3563m | -13.7m/s | 0°C | 0% | 0hPa | 0V | 00:00:00 | 00:00:00 | 00:00:00 | |
| 9A1FER-3 | 2026-09-02 13:02:28 | 46.00534 | 15.30534 | 119° | 16km/h | 3739m | -13.6m/s | 0°C | 0% | 0hPa | 0V | 00:00:00 | 00:00:00 | 00:00:00 | |
| 9A1FER-15 | 2026-09-02 13:02:21 | 46.00534 | 15.30490 | 115° | 22km/h | 3837m | -13.7m/s | 0°C | 0% | 0hPa | 0V | 00:00:00 | 00:00:00 | 00:00:00 | |
| 9A1FER-15 | 2026-09-02 13:02:05 | 46.00530 | 15.30369 | 65° | 22km/h | 4057m | -13.3m/s | 0°C | 0% | 0hPa | 0V | 00:00:00 | 00:00:00 | 00:00:00 | |
| 9A1FER-3 | 2026-09-02 13:02:01 | 46.00527 | 15.30347 | 118° | 22km/h | 4114m | -14.2m/s | 0°C | 0% | 0hPa | 0V | 00:00:00 | 00:00:00 | 00:00:00 | |
| 9A1FER-15 | 2026-09-02 13:01:49 | 46.00521 | 15.30248 | 62° | 26km/h | 4287m | -14.0m/s | 0°C | 0% | 0hPa | 0V | 00:00:00 | 00:00:00 | 00:00:00 | |
| 9A1FER-3 | 2026-09-02 13:01:43 | 46.00515 | 15.30211 | 112° | 27km/h | 4371m | -14.2m/s | 0°C | 0% | 0hPa | 0V | 00:00:00 | 00:00:00 | 00:00:00 | |
| 9A1FER-15 | 2026-09-02 13:01:34 | 46.00522 | 15.30123 | 104° | 29km/h | 4503m | -14.7m/s | 0°C | 0% | 0hPa | 0V | 00:00:00 | 00:00:00 | 00:00:00 | |
| 9A1FER-3 | 2026-09-02 13:01:28 | 46.00524 | 15.30058 | 92° | 29km/h | 4592m | -15.0m/s | 0°C | 0% | 0hPa | 0V | 00:00:00 | 00:00:00 | 00:00:00 | |
| 9A1FER-15 | 2026-09-02 13:01:18 | 46.00516 | 15.29957 | 83° | 35km/h | 4738m | -13.9m/s | 0°C | 0% | 0hPa | 0V | 00:00:00 | 00:00:00 | 00:00:00 | |
| 9A1FER-3 | 2026-09-02 13:01:11 | 46.00523 | 15.29879 | 117° | 40km/h | 4842m | -14.7m/s | 0°C | 0% | 0hPa | 0V | 00:00:00 | 00:00:00 | 00:00:00 | |
| 9A1FER-15 | 2026-09-02 13:01:03 | 46.00547 | 15.29769 | 109° | 42km/h | 4961m | -14.8m/s | 0°C | 0% | 0hPa | 0V | 00:00:00 | 00:00:00 | 00:00:00 | |
| 9A1FER-3 | 2026-09-02 13:00:56 | 46.00557 | 15.29662 | 87° | 37km/h | 5067m | -14.3m/s | 0°C | 0% | 0hPa | 0V | 00:00:00 | 00:00:00 | 00:00:00 | |
| 9A1FER-15 | 2026-09-02 13:00:46 | 46.00568 | 15.29521 | 114° | 44km/h | 5216m | -16.0m/s | 0°C | 0% | 0hPa | 0V | 00:00:00 | 00:00:00 | 00:00:00 | |
| 9A1FER-3 | 2026-09-02 13:00:41 | 46.00572 | 15.29445 | 95° | 42km/h | 5291m | -14.9m/s | 0°C | 0% | 0hPa | 0V | 00:00:00 | 00:00:00 | 00:00:00 | |
| 9A1FER-15 | 2026-09-02 13:00:27 | 46.00615 | 15.29238 | 94° | 42km/h | 5505m | -15.2m/s | 0°C | 0% | 0hPa | 0V | 00:00:00 | 00:00:00 | 00:00:00 | |
| 9A1FER-3 | 2026-09-02 13:00:26 | 46.00616 | 15.29223 | 94° | 42km/h | 5521m | -15.3m/s | 0°C | 0% | 0hPa | 0V | 00:00:00 | 00:00:00 | 00:00:00 | |
| 9A1FER-15 | 2026-09-02 13:00:12 | 46.00644 | 15.29010 | 114° | 46km/h | 5735m | -16.0m/s | 0°C | 0% | 0hPa | 0V | 00:00:00 | 00:00:00 | 00:00:00 | |
| 9A1FER-3 | 2026-09-02 13:00:11 | 46.00648 | 15.28994 | 109° | 46km/h | 5751m | -16.4m/s | 0°C | 0% | 0hPa | 0V | 00:00:00 | 00:00:00 | 00:00:00 | |
| 9A1FER-15 | 2026-09-02 12:59:57 | 46.00671 | 15.28764 | 113° | 46km/h | 5972m | -16.5m/s | 0°C | 0% | 0hPa | 0V | 00:00:00 | 00:00:00 | 00:00:00 | |
| 9A1FER-3 | 2026-09-02 12:59:56 | 46.00675 | 15.28748 | 110° | 46km/h | 5988m | -15.8m/s | 0°C | 0% | 0hPa | 0V | 00:00:00 | 00:00:00 | 00:00:00 | |
| 9A1FER-10 | 2026-09-02 12:59:47 | 46.00690 | 15.28599 | 99° | 42km/h | 6132m | -15.9m/s | 0°C | 0% | 0hPa | 0V | 00:00:00 | 00:00:00 | 00:00:00 | |
| 9A1FER-15 | 2026-09-02 12:59:42 | 46.00691 | 15.28512 | 89° | 42km/h | 6213m | -15.7m/s | 0°C | 0% | 0hPa | 0V | 00:00:00 | 00:00:00 | 00:00:00 | |
| 9A1FER-3 | 2026-09-02 12:59:40 | 46.00691 | 15.28481 | 92° | 42km/h | 6244m | -15.8m/s | 0°C | 0% | 0hPa | 0V | 00:00:00 | 00:00:00 | 00:00:00 | |
| 9A1FER-10 | 2026-09-02 12:59:31 | 46.00708 | 15.28350 | 111° | 47km/h | 6383m | -15.5m/s | 0°C | 0% | 0hPa | 0V | 00:00:00 | 00:00:00 | 00:00:00 | |
| 9A1FER-15 | 2026-09-02 12:59:27 | 46.00727 | 15.28290 | 113° | 49km/h | 6446m | -16.0m/s | 0°C | 0% | 0hPa | 0V | 00:00:00 | 00:00:00 | 00:00:00 | |
| 9A1FER-3 | 2026-09-02 12:59:25 | 46.00735 | 15.28254 | 102° | 47km/h | 6478m | -15.9m/s | 0°C | 0% | 0hPa | 0V | 00:00:00 | 00:00:00 | 00:00:00 | |
| 9A1FER-10 | 2026-09-02 12:59:16 | 46.00769 | 15.28108 | 112° | 46km/h | 6624m | -16.3m/s | 0°C | 0% | 0hPa | 0V | 00:00:00 | 00:00:00 | 00:00:00 | |
| 9A1FER-15 | 2026-09-02 12:59:12 | 46.00783 | 15.28036 | 102° | 46km/h | 6690m | -16.5m/s | 0°C | 0% | 0hPa | 0V | 00:00:00 | 00:00:00 | 00:00:00 | |
| 9A1FER-3 | 2026-09-02 12:59:10 | 46.00789 | 15.28008 | 114° | 44km/h | 6723m | -16.6m/s | 0°C | 0% | 0hPa | 0V | 00:00:00 | 00:00:00 | 00:00:00 | |
| 9A1FER-10 | 2026-09-02 12:58:59 | 46.00833 | 15.27834 | 116° | 49km/h | 6904m | -15.9m/s | 0°C | 0% | 0hPa | 0V | 00:00:00 | 00:00:00 | 00:00:00 | |
| 9A1FER-15 | 2026-09-02 12:58:56 | 46.00848 | 15.27792 | 119° | 51km/h | 6951m | -15.5m/s | 0°C | 0% | 0hPa | 0V | 00:00:00 | 00:00:00 | 00:00:00 | |
| 9A1FER-3 | 2026-09-02 12:58:55 | 46.00854 | 15.27777 | 120° | 51km/h | 6967m | -15.7m/s | 0°C | 0% | 0hPa | 0V | 00:00:00 | 00:00:00 | 00:00:00 | |
| 9A1FER-10 | 2026-09-02 12:58:43 | 46.00912 | 15.27572 | 109° | 57km/h | 7162m | -16.4m/s | 0°C | 0% | 0hPa | 0V | 00:00:00 | 00:00:00 | 00:00:00 | |
| 9A1FER-15 | 2026-09-02 12:58:41 | 46.00921 | 15.27532 | 106° | 58km/h | 7196m | -16.8m/s | 0°C | 0% | 0hPa | 0V | 00:00:00 | 00:00:00 | 00:00:00 | |
| 9A1FER-3 | 2026-09-02 12:58:40 | 46.00925 | 15.27510 | 102° | 55km/h | 7213m | -16.9m/s | 0°C | 0% | 0hPa | 0V | 00:00:00 | 00:00:00 | 00:00:00 | |
| 9A1FER-10 | 2026-09-02 12:58:28 | 46.00941 | 15.27265 | 87° | 49km/h | 7418m | -16.6m/s | 0°C | 0% | 0hPa | 0V | 00:00:00 | 00:00:00 | 00:00:00 | |
| 9A1FER-15 | 2026-09-02 12:58:25 | 46.00935 | 15.27207 | 82° | 47km/h | 7468m | -16.5m/s | 0°C | 0% | 0hPa | 0V | 00:00:00 | 00:00:00 | 00:00:00 | |
| 9A1FER-3 | 2026-09-02 12:58:24 | 46.00934 | 15.27191 | 88° | 47km/h | 7485m | -16.8m/s | 0°C | 0% | 0hPa | 0V | 00:00:00 | 00:00:00 | 00:00:00 | |
| 9A1FER-10 | 2026-09-02 12:58:13 | 46.00928 | 15.26996 | 92° | 51km/h | 7670m | -16.7m/s | 0°C | 0% | 0hPa | 0V | 00:00:00 | 00:00:00 | 00:00:00 | |
| 9A1FER-15 | 2026-09-02 12:58:10 | 46.00932 | 15.26947 | 99° | 53km/h | 7721m | -16.8m/s | 0°C | 0% | 0hPa | 0V | 00:00:00 | 00:00:00 | 00:00:00 | |
| 9A1FER-3 | 2026-09-02 12:58:09 | 46.00934 | 15.26929 | 98° | 51km/h | 7738m | -16.7m/s | 0°C | 0% | 0hPa | 0V | 00:00:00 | 00:00:00 | 00:00:00 | |
| 9A1FER-10 | 2026-09-02 12:57:58 | 46.00930 | 15.26715 | 85° | 49km/h | 7921m | -16.9m/s | 0°C | 0% | 0hPa | 0V | 00:00:00 | 00:00:00 | 00:00:00 | |
| 9A1FER-15 | 2026-09-02 12:57:54 | 46.00930 | 15.26646 | 96° | 55km/h | 7989m | -16.9m/s | 0°C | 0% | 0hPa | 0V | 00:00:00 | 00:00:00 | 00:00:00 | |
| 9A1FER-3 | 2026-09-02 12:57:48 | 46.00933 | 15.26519 | 84° | 53km/h | 8091m | -17.1m/s | 0°C | 0% | 0hPa | 0V | 00:00:00 | 00:00:00 | 00:00:00 | |
| 9A1FER-10 | 2026-09-02 12:57:43 | 46.00929 | 15.26427 | 96° | 55km/h | 8177m | -17.2m/s | 0°C | 0% | 0hPa | 0V | 00:00:00 | 00:00:00 | 00:00:00 | |
| 9A1FER-15 | 2026-09-02 12:57:39 | 46.00934 | 15.26347 | 92° | 55km/h | 8246m | -17.1m/s | 0°C | 0% | 0hPa | 0V | 00:00:00 | 00:00:00 | 00:00:00 | |
| 9A1FER-3 | 2026-09-02 12:57:32 | 46.00926 | 15.26206 | 88° | 55km/h | 8368m | -17.2m/s | 0°C | 0% | 0hPa | 0V | 00:00:00 | 00:00:00 | 00:00:00 | |
| 9A1FER-10 | 2026-09-02 12:57:28 | 46.00926 | 15.26131 | 92° | 57km/h | 8437m | -17.1m/s | 0°C | 0% | 0hPa | 0V | 00:00:00 | 00:00:00 | 00:00:00 | |
| 9A1FER-15 | 2026-09-02 12:57:24 | 46.00925 | 15.26067 | 85° | 57km/h | 8505m | -16.7m/s | 0°C | 0% | 0hPa | 0V | 00:00:00 | 00:00:00 | 00:00:00 | |
| 9A1FER-3 | 2026-09-02 12:57:17 | 46.00912 | 15.25903 | 83° | 55km/h | 8624m | -17.2m/s | 0°C | 0% | 0hPa | 0V | 00:00:00 | 00:00:00 | 00:00:00 | |
| 9A1FER-10 | 2026-09-02 12:57:13 | 46.00907 | 15.25826 | 87° | 57km/h | 8693m | -17.1m/s | 0°C | 0% | 0hPa | 0V | 00:00:00 | 00:00:00 | 00:00:00 | |
| 9A1FER-15 | 2026-09-02 12:57:09 | 46.00906 | 15.25752 | 93° | 58km/h | 8761m | -17.2m/s | 0°C | 0% | 0hPa | 0V | 00:00:00 | 00:00:00 | 00:00:00 | |
| 9A1FER-3 | 2026-09-02 12:57:00 | 46.00917 | 15.25559 | 91° | 58km/h | 8921m | -17.7m/s | 0°C | 0% | 0hPa | 0V | 00:00:00 | 00:00:00 | 00:00:00 | |
| 9A1FER-10 | 2026-09-02 12:56:58 | 46.00918 | 15.25517 | 91° | 60km/h | 8956m | -18.0m/s | 0°C | 0% | 0hPa | 0V | 00:00:00 | 00:00:00 | 00:00:00 | |
| 9A1FER-3 | 2026-09-02 12:56:45 | 46.00945 | 15.25232 | 94° | 64km/h | 9187m | -17.7m/s | 0°C | 0% | 0hPa | 0V | 00:00:00 | 00:00:00 | 00:00:00 | |
| 9A1FER-10 | 2026-09-02 12:56:43 | 46.00947 | 15.25185 | 92° | 64km/h | 9222m | -17.9m/s | 0°C | 0% | 0hPa | 0V | 00:00:00 | 00:00:00 | 00:00:00 | |
| 9A1FER-15 | 2026-09-02 12:56:39 | 46.00967 | 15.25097 | 97° | 64km/h | 9293m | -17.8m/s | 0°C | 0% | 0hPa | 0V | 00:00:00 | 00:00:00 | 00:00:00 | |
| 9A1FER-10 | 2026-09-02 12:56:29 | 46.00969 | 15.24839 | 87° | 66km/h | 9494m | -18.5m/s | 0°C | 0% | 0hPa | 0V | 00:00:00 | 00:00:00 | 00:00:00 | |
| 9A1FER-15 | 2026-09-02 12:56:24 | 46.00972 | 15.24755 | 101° | 68km/h | 9568m | -18.2m/s | 0°C | 0% | 0hPa | 0V | 00:00:00 | 00:00:00 | 00:00:00 | |
| 9A1FER-10 | 2026-09-02 12:56:13 | 46.01007 | 15.24489 | 101° | 66km/h | 9766m | -17.9m/s | 0°C | 0% | 0hPa | 0V | 00:00:00 | 00:00:00 | 00:00:00 | |
| 9A1FER-3 | 2026-09-02 12:56:12 | 46.01010 | 15.24466 | 101° | 66km/h | 9784m | -17.7m/s | 0°C | 0% | 0hPa | 0V | 00:00:00 | 00:00:00 | 00:00:00 | |
| 9A1FER-15 | 2026-09-02 12:56:09 | 46.01019 | 15.24394 | 103° | 66km/h | 9838m | -17.6m/s | 0°C | 0% | 0hPa | 0V | 00:00:00 | 00:00:00 | 00:00:00 | |
| 9A1FER-10 | 2026-09-02 12:55:58 | 46.01064 | 15.24140 | 106° | 64km/h | 10033m | -17.8m/s | 0°C | 0% | 0hPa | 0V | 00:00:00 | 00:00:00 | 00:00:00 | |
| 9A1FER-3 | 2026-09-02 12:55:57 | 46.01068 | 15.24118 | 104° | 64km/h | 10051m | -18.3m/s | 0°C | 0% | 0hPa | 0V | 00:00:00 | 00:00:00 | 00:00:00 | |
| 9A1FER-15 | 2026-09-02 12:55:54 | 46.01080 | 15.24049 | 104° | 66km/h | 10106m | -18.3m/s | 0°C | 0% | 0hPa | 0V | 00:00:00 | 00:00:00 | 00:00:00 | |
| 9A1FER-10 | 2026-09-02 12:55:43 | 46.01133 | 15.23809 | 111° | 66km/h | 10310m | -19.1m/s | 0°C | 0% | 0hPa | 0V | 00:00:00 | 00:00:00 | 00:00:00 | |
| 9A1FER-3 | 2026-09-02 12:55:42 | 46.01139 | 15.23784 | 108° | 68km/h | 10329m | -19.0m/s | 0°C | 0% | 0hPa | 0V | 00:00:00 | 00:00:00 | 00:00:00 | |
| 9A1FER-15 | 2026-09-02 12:55:38 | 46.01156 | 15.23687 | 104° | 68km/h | 10404m | -18.4m/s | 0°C | 0% | 0hPa | 0V | 00:00:00 | 00:00:00 | 00:00:00 | |
| 9A1FER-10 | 2026-09-02 12:55:29 | 46.01197 | 15.23459 | 105° | 73km/h | 10590m | -18.2m/s | 0°C | 0% | 0hPa | 0V | 00:00:00 | 00:00:00 | 00:00:00 | |
| 9A1FER-3 | 2026-09-02 12:55:27 | 46.01201 | 15.23436 | 106° | 73km/h | 10608m | -18.3m/s | 0°C | 0% | 0hPa | 0V | 00:00:00 | 00:00:00 | 00:00:00 | |
| 9A1FER-15 | 2026-09-02 12:55:21 | 46.01236 | 15.23285 | 107° | 78km/h | 10721m | -19.2m/s | 0°C | 0% | 0hPa | 0V | 00:00:00 | 00:00:00 | 00:00:00 | |
| 9A1FER-10 | 2026-09-02 12:55:13 | 46.01271 | 15.23078 | 109° | 78km/h | 10876m | -19.7m/s | 0°C | 0% | 0hPa | 0V | 00:00:00 | 00:00:00 | 00:00:00 | |
| 9A1FER-3 | 2026-09-02 12:55:09 | 46.01295 | 15.22968 | 105° | 82km/h | 10955m | -19.7m/s | 0°C | 0% | 0hPa | 0V | 00:00:00 | 00:00:00 | 00:00:00 | |
| 9A1FER-15 | 2026-09-02 12:55:06 | 46.01307 | 15.22877 | 96° | 80km/h | 11016m | -20.4m/s | 0°C | 0% | 0hPa | 0V | 00:00:00 | 00:00:00 | 00:00:00 | |
| 9A1FER-10 | 2026-09-02 12:54:58 | 46.01345 | 15.22659 | 110° | 77km/h | 11177m | -20.2m/s | 0°C | 0% | 0hPa | 0V | 00:00:00 | 00:00:00 | 00:00:00 | |
| 9A1FER-3 | 2026-09-02 12:54:54 | 46.01371 | 15.22543 | 108° | 75km/h | 11258m | -20.1m/s | 0°C | 0% | 0hPa | 0V | 00:00:00 | 00:00:00 | 00:00:00 | |
| 9A1FER-15 | 2026-09-02 12:54:51 | 46.01389 | 15.22464 | 109° | 75km/h | 11318m | -19.6m/s | 0°C | 0% | 0hPa | 0V | 00:00:00 | 00:00:00 | 00:00:00 | |
| 9A1FER-10 | 2026-09-02 12:54:43 | 46.01449 | 15.22272 | 119° | 71km/h | 11478m | -21.1m/s | 0°C | 0% | 0hPa | 0V | 00:00:00 | 00:00:00 | 00:00:00 | |
| 9A1FER-3 | 2026-09-02 12:54:36 | 46.01501 | 15.22094 | 102° | 69km/h | 11620m | -20.6m/s | 0°C | 0% | 0hPa | 0V | 00:00:00 | 00:00:00 | 00:00:00 | |
| 9A1FER-15 | 2026-09-02 12:54:35 | 46.01504 | 15.22070 | 98° | 73km/h | 11640m | -20.6m/s | 0°C | 0% | 0hPa | 0V | 00:00:00 | 00:00:00 | 00:00:00 | |
| 9A1FER-10 | 2026-09-02 12:54:28 | 46.01522 | 15.21911 | 100° | 75km/h | 11787m | -20.3m/s | 0°C | 0% | 0hPa | 0V | 00:00:00 | 00:00:00 | 00:00:00 | |
| 9A1FER-3 | 2026-09-02 12:54:21 | 46.01545 | 15.21721 | 99° | 73km/h | 11933m | -20.8m/s | 0°C | 0% | 0hPa | 0V | 00:00:00 | 00:00:00 | 00:00:00 | |
| 9A1FER-15 | 2026-09-02 12:54:19 | 46.01549 | 15.21666 | 95° | 75km/h | 11975m | -20.7m/s | 0°C | 0% | 0hPa | 0V | 00:00:00 | 00:00:00 | 00:00:00 | |
| 9A1FER-10 | 2026-09-02 12:54:13 | 46.01547 | 15.21504 | 82° | 71km/h | 12101m | -22.0m/s | 0°C | 0% | 0hPa | 0V | 00:00:00 | 00:00:00 | 00:00:00 | |
| 9A1FER-3 | 2026-09-02 12:54:06 | 46.01539 | 15.21329 | 96° | 69km/h | 12250m | -21.6m/s | 0°C | 0% | 0hPa | 0V | 00:00:00 | 00:00:00 | 00:00:00 | |
| 9A1FER-15 | 2026-09-02 12:54:04 | 46.01545 | 15.21278 | 100° | 73km/h | 12294m | -21.8m/s | 0°C | 0% | 0hPa | 0V | 00:00:00 | 00:00:00 | 00:00:00 | |
| 9A1FER-10 | 2026-09-02 12:53:58 | 46.01556 | 15.21119 | 90° | 69km/h | 12424m | -21.8m/s | 0°C | 0% | 0hPa | 0V | 00:00:00 | 00:00:00 | 00:00:00 | |
| 9A1FER-15 | 2026-09-02 12:53:49 | 46.01548 | 15.20898 | 95° | 89km/h | 12621m | -22.6m/s | 0°C | 0% | 0hPa | 0V | 00:00:00 | 00:00:00 | 00:00:00 | |
| 9A1FER-10 | 2026-09-02 12:53:43 | 46.01564 | 15.20744 | 99° | 89km/h | 12753m | -21.8m/s | 0°C | 0% | 0hPa | 0V | 00:00:00 | 00:00:00 | 00:00:00 | |
| 9A1FER-3 | 2026-09-02 12:53:35 | 46.01593 | 15.20484 | 105° | 78km/h | 12934m | -22.3m/s | 0°C | 0% | 0hPa | 0V | 00:00:00 | 00:00:00 | 00:00:00 | |
| 9A1FER-15 | 2026-09-02 12:53:29 | 46.01636 | 15.20301 | 112° | 68km/h | 13066m | -21.3m/s | 0°C | 0% | 0hPa | 0V | 00:00:00 | 00:00:00 | 00:00:00 | |
| 9A1FER-10 | 2026-09-02 12:53:28 | 46.01643 | 15.20274 | 111° | 66km/h | 13087m | -21.3m/s | 0°C | 0% | 0hPa | 0V | 00:00:00 | 00:00:00 | 00:00:00 | |
| 9A1FER-3 | 2026-09-02 12:53:20 | 46.01675 | 15.20079 | 101° | 60km/h | 13263m | -22.6m/s | 0°C | 0% | 0hPa | 0V | 00:00:00 | 00:00:00 | 00:00:00 | |
| 9A1FER-15 | 2026-09-02 12:53:14 | 46.01684 | 15.19947 | 90° | 66km/h | 13398m | -21.9m/s | 0°C | 0% | 0hPa | 0V | 00:00:00 | 00:00:00 | 00:00:00 | |
| 9A1FER-10 | 2026-09-02 12:53:13 | 46.01684 | 15.19925 | 91° | 64km/h | 13420m | -21.6m/s | 0°C | 0% | 0hPa | 0V | 00:00:00 | 00:00:00 | 00:00:00 | |
| 9A1FER-3 | 2026-09-02 12:53:04 | 46.01671 | 15.19725 | 83° | 71km/h | 13609m | -20.7m/s | 0°C | 0% | 0hPa | 0V | 00:00:00 | 00:00:00 | 00:00:00 | |
| 9A1FER-10 | 2026-09-02 12:52:58 | 46.01657 | 15.19578 | 81° | 75km/h | 13734m | -21.2m/s | 0°C | 0% | 0hPa | 0V | 00:00:00 | 00:00:00 | 00:00:00 | |
| 9A1FER-10 | 2026-09-02 12:52:43 | 46.01641 | 15.19168 | 95° | 75km/h | 14077m | -22.9m/s | 0°C | 0% | 0hPa | 0V | 00:00:00 | 00:00:00 | 00:00:00 | |
| 9A1FER-15 | 2026-09-02 12:52:42 | 46.01643 | 15.19140 | 95° | 75km/h | 14100m | -23.3m/s | 0°C | 0% | 0hPa | 0V | 00:00:00 | 00:00:00 | 00:00:00 | |
| 9A1FER-3 | 2026-09-02 12:52:29 | 46.01656 | 15.18796 | 88° | 82km/h | 14417m | -23.7m/s | 0°C | 0% | 0hPa | 0V | 00:00:00 | 00:00:00 | 00:00:00 | |
| 9A1FER-10 | 2026-09-02 12:52:28 | 46.01655 | 15.18769 | 85° | 82km/h | 14441m | -24.4m/s | 0°C | 0% | 0hPa | 0V | 00:00:00 | 00:00:00 | 00:00:00 | |
| 9A1FER-15 | 2026-09-02 12:52:24 | 46.01642 | 15.18659 | 79° | 86km/h | 14539m | -24.0m/s | 0°C | 0% | 0hPa | 0V | 00:00:00 | 00:00:00 | 00:00:00 | |
| 9A1FER-3 | 2026-09-02 12:52:14 | 46.01619 | 15.18354 | 88° | 78km/h | 14783m | -24.7m/s | 0°C | 0% | 0hPa | 0V | 00:00:00 | 00:00:00 | 00:00:00 | |
| 9A1FER-10 | 2026-09-02 12:52:13 | 46.01619 | 15.18321 | 92° | 77km/h | 14807m | -22.9m/s | 0°C | 0% | 0hPa | 0V | 00:00:00 | 00:00:00 | 00:00:00 | |
| 9A1FER-15 | 2026-09-02 12:52:08 | 46.01625 | 15.18168 | 98° | 64km/h | 14929m | -25.1m/s | 0°C | 0% | 0hPa | 0V | 00:00:00 | 00:00:00 | 00:00:00 | |
| 9A1FER-3 | 2026-09-02 12:51:59 | 46.01655 | 15.17938 | 98° | 58km/h | 15145m | -24.7m/s | 0°C | 0% | 0hPa | 0V | 00:00:00 | 00:00:00 | 00:00:00 | |
| 9A1FER-10 | 2026-09-02 12:51:58 | 46.01656 | 15.17918 | 95° | 58km/h | 15170m | -25.1m/s | 0°C | 0% | 0hPa | 0V | 00:00:00 | 00:00:00 | 00:00:00 | |
| 9A1FER-15 | 2026-09-02 12:51:53 | 46.01656 | 15.17818 | 87° | 64km/h | 15297m | -25.8m/s | 0°C | 0% | 0hPa | 0V | 00:00:00 | 00:00:00 | 00:00:00 | |
| 9A1FER-3 | 2026-09-02 12:51:45 | 46.01646 | 15.17617 | 88° | 66km/h | 15536m | -26.8m/s | 0°C | 0% | 0hPa | 0V | 00:00:00 | 00:00:00 | 00:00:00 | |
| 9A1FER-10 | 2026-09-02 12:51:43 | 46.01645 | 15.17594 | 89° | 64km/h | 15562m | -26.9m/s | 0°C | 0% | 0hPa | 0V | 00:00:00 | 00:00:00 | 00:00:00 | |
| 9A1FER-3 | 2026-09-02 12:51:29 | 46.01660 | 15.17264 | 95° | 60km/h | 15949m | -27.2m/s | 0°C | 0% | 0hPa | 0V | 00:00:00 | 00:00:00 | 00:00:00 | |
| 9A1FER-10 | 2026-09-02 12:51:28 | 46.01661 | 15.17243 | 97° | 60km/h | 15976m | -27.0m/s | 0°C | 0% | 0hPa | 0V | 00:00:00 | 00:00:00 | 00:00:00 | |
| 9A1FER-15 | 2026-09-02 12:51:23 | 46.01670 | 15.17138 | 102° | 55km/h | 16115m | -28.9m/s | 0°C | 0% | 0hPa | 0V | 00:00:00 | 00:00:00 | 00:00:00 | |
| 9A1FER-3 | 2026-09-02 12:51:14 | 46.01706 | 15.16940 | 106° | 47km/h | 16378m | -29.1m/s | 0°C | 0% | 0hPa | 0V | 00:00:00 | 00:00:00 | 00:00:00 | |
| 9A1FER-10 | 2026-09-02 12:51:13 | 46.01709 | 15.16923 | 106° | 47km/h | 16407m | -29.2m/s | 0°C | 0% | 0hPa | 0V | 00:00:00 | 00:00:00 | 00:00:00 | |
| 9A1FER-15 | 2026-09-02 12:51:08 | 46.01722 | 15.16817 | 96° | 47km/h | 16576m | -25.5m/s | 0°C | 0% | 0hPa | 0V | 00:00:00 | 00:00:00 | 00:00:00 | |
| 9A1FER-10 | 2026-09-02 12:50:58 | 46.01727 | 15.16664 | 91° | 47km/h | 16809m | -26.8m/s | 0°C | 0% | 0hPa | 0V | 00:00:00 | 00:00:00 | 00:00:00 | |
| 9A1FER-3 | 2026-09-02 12:50:56 | 46.01727 | 15.16629 | 91° | 47km/h | 16864m | -27.9m/s | 0°C | 0% | 0hPa | 0V | 00:00:00 | 00:00:00 | 00:00:00 | |
| 9A1FER-15 | 2026-09-02 12:50:52 | 46.01728 | 15.16558 | 89° | 44km/h | 16976m | -28.3m/s | 0°C | 0% | 0hPa | 0V | 00:00:00 | 00:00:00 | 00:00:00 | |
| 9A1FER-10 | 2026-09-02 12:50:43 | 46.01737 | 15.16403 | 102° | 35km/h | 17232m | -28.6m/s | 0°C | 0% | 0hPa | 0V | 00:00:00 | 00:00:00 | 00:00:00 | |
| 9A1FER-3 | 2026-09-02 12:50:41 | 46.01741 | 15.16373 | 102° | 35km/h | 17290m | -28.9m/s | 0°C | 0% | 0hPa | 0V | 00:00:00 | 00:00:00 | 00:00:00 | |
| 9A1FER-15 | 2026-09-02 12:50:36 | 46.01747 | 15.16313 | 91° | 38km/h | 17434m | -28.6m/s | 0°C | 0% | 0hPa | 0V | 00:00:00 | 00:00:00 | 00:00:00 | |
| 9A1FER-10 | 2026-09-02 12:50:28 | 46.01732 | 15.16215 | 75° | 49km/h | 17677m | -32.9m/s | 0°C | 0% | 0hPa | 0V | 00:00:00 | 00:00:00 | 00:00:00 | |
| 9A1FER-3 | 2026-09-02 12:50:26 | 46.01725 | 15.16183 | 81° | 51km/h | 17741m | -30.5m/s | 0°C | 0% | 0hPa | 0V | 00:00:00 | 00:00:00 | 00:00:00 | |
| 9A1FER-15 | 2026-09-02 12:50:21 | 46.01714 | 15.16103 | 69° | 46km/h | 17899m | -34.1m/s | 0°C | 0% | 0hPa | 0V | 00:00:00 | 00:00:00 | 00:00:00 | |
| 9A1FER-10 | 2026-09-02 12:50:12 | 46.01710 | 15.15937 | 111° | 31km/h | 18188m | -34.2m/s | 0°C | 0% | 0hPa | 0V | 00:00:00 | 00:00:00 | 00:00:00 | |
| PETON7-10 | 2026-09-02 12:50:10 | 46.01719 | 15.15908 | 124° | 20km/h | 18256m | -32.1m/s | 0°C | 0% | 0hPa | 0V | 00:00:00 | 00:00:00 | 00:00:00 | |
| 9A1FER-15 | 2026-09-02 12:50:06 | 46.01741 | 15.15867 | 129° | 16km/h | 18391m | -34.1m/s | 0°C | 0% | 0hPa | 0V | 00:00:00 | 00:00:00 | 00:00:00 | |
| 9A1FER-10 | 2026-09-02 12:49:57 | 46.01777 | 15.15812 | 173° | 11km/h | 18687m | -33.5m/s | 0°C | 0% | 0hPa | 0V | 00:00:00 | 00:00:00 | 00:00:00 | |
| 9A1FER-3 | 2026-09-02 12:49:55 | 46.01782 | 15.15807 | 141° | 13km/h | 18752m | -31.7m/s | 0°C | 0% | 0hPa | 0V | 00:00:00 | 00:00:00 | 00:00:00 | |
| 9A1FER-15 | 2026-09-02 12:49:50 | 46.01787 | 15.15795 | 83° | 15km/h | 18908m | -31.0m/s | 0°C | 0% | 0hPa | 0V | 00:00:00 | 00:00:00 | 00:00:00 | |
| PETON7-10 | 2026-09-02 12:49:48 | 46.01787 | 15.15788 | 83° | 15km/h | 18970m | -31.2m/s | 0°C | 0% | 0hPa | 0V | 00:00:00 | 00:00:00 | 00:00:00 | |
| 9A1FER-10 | 2026-09-02 12:49:42 | 46.01790 | 15.15756 | 102° | 27km/h | 19162m | -33.6m/s | 0°C | 0% | 0hPa | 0V | 00:00:00 | 00:00:00 | 00:00:00 | |
| 9A1FER-3 | 2026-09-02 12:49:40 | 46.01791 | 15.15744 | 95° | 22km/h | 19231m | -34.7m/s | 0°C | 0% | 0hPa | 0V | 00:00:00 | 00:00:00 | 00:00:00 | |
| 9A1FER-15 | 2026-09-02 12:49:35 | 46.01796 | 15.15714 | 91° | 26km/h | 19410m | -36.2m/s | 0°C | 0% | 0hPa | 0V | 00:00:00 | 00:00:00 | 00:00:00 | |
| PETON7-10 | 2026-09-02 12:49:29 | 46.01788 | 15.15658 | 96° | 26km/h | 19626m | -34.7m/s | 0°C | 0% | 0hPa | 0V | 00:00:00 | 00:00:00 | 00:00:00 | |
| 9A1FER-10 | 2026-09-02 12:49:27 | 46.01794 | 15.15631 | 108° | 16km/h | 19692m | -31.6m/s | 0°C | 0% | 0hPa | 0V | 00:00:00 | 00:00:00 | 00:00:00 | |
| 9A1FER-3 | 2026-09-02 12:49:25 | 46.01801 | 15.15611 | 127° | 15km/h | 19757m | -32.6m/s | 0°C | 0% | 0hPa | 0V | 00:00:00 | 00:00:00 | 00:00:00 | |
| 9A1FER-15 | 2026-09-02 12:49:20 | 46.01820 | 15.15591 | 164° | 13km/h | 19925m | -33.7m/s | 0°C | 0% | 0hPa | 0V | 00:00:00 | 00:00:00 | 00:00:00 | |
| PETON7-10 | 2026-09-02 12:49:14 | 46.01827 | 15.15576 | 85° | 11km/h | 20128m | -34.9m/s | 0°C | 0% | 0hPa | 0V | 00:00:00 | 00:00:00 | 00:00:00 | |
| 9A1FER-10 | 2026-09-02 12:49:12 | 46.01826 | 15.15564 | 89° | 11km/h | 20199m | -36.0m/s | 0°C | 0% | 0hPa | 0V | 00:00:00 | 00:00:00 | 00:00:00 | |
| 9A1FER-3 | 2026-09-02 12:49:10 | 46.01827 | 15.15554 | 91° | 11km/h | 20272m | -36.0m/s | 0°C | 0% | 0hPa | 0V | 00:00:00 | 00:00:00 | 00:00:00 | |
| 9A1FER-15 | 2026-09-02 12:49:05 | 46.01825 | 15.15531 | 90° | 9km/h | 20450m | -35.4m/s | 0°C | 0% | 0hPa | 0V | 00:00:00 | 00:00:00 | 00:00:00 | |
| PETON7-10 | 2026-09-02 12:48:58 | 46.01830 | 15.15509 | 137° | 11km/h | 20703m | -36.6m/s | 0°C | 0% | 0hPa | 0V | 00:00:00 | 00:00:00 | 00:00:00 | |
| 9A1FER-3 | 2026-09-02 12:48:54 | 46.01836 | 15.15500 | 140° | 11km/h | 20850m | -36.7m/s | 0°C | 0% | 0hPa | 0V | 00:00:00 | 00:00:00 | 00:00:00 | |
| 9A1FER-15 | 2026-09-02 12:48:50 | 46.01846 | 15.15495 | 172° | 13km/h | 20999m | -37.4m/s | 0°C | 0% | 0hPa | 0V | 00:00:00 | 00:00:00 | 00:00:00 | |
| 9A1FER-10 | 2026-09-02 12:48:39 | 46.01862 | 15.15510 | 336° | 11km/h | 21429m | -42.7m/s | 0°C | 0% | 0hPa | 0V | 00:00:00 | 00:00:00 | 00:00:00 | |
| 9A1FER-15 | 2026-09-02 12:48:35 | 46.01842 | 15.15520 | 346° | 13km/h | 21589m | -35.8m/s | 0°C | 0% | 0hPa | 0V | 00:00:00 | 00:00:00 | 00:00:00 | |
| PETON7-10 | 2026-09-02 12:48:27 | 46.01814 | 15.15501 | 62° | 7km/h | 21915m | -42.2m/s | 0°C | 0% | 0hPa | 0V | 00:00:00 | 00:00:00 | 00:00:00 | |
| 9A1FER-3 | 2026-09-02 12:48:24 | 46.01812 | 15.15492 | 82° | 9km/h | 22052m | -44.7m/s | 0°C | 0% | 0hPa | 0V | 00:00:00 | 00:00:00 | 00:00:00 | |
| 9A1FER-10 | 2026-09-02 12:48:21 | 46.01811 | 15.15483 | 98° | 7km/h | 22178m | -39.7m/s | 0°C | 0% | 0hPa | 0V | 00:00:00 | 00:00:00 | 00:00:00 | |
| 9A1FER-15 | 2026-09-02 12:48:18 | 46.01808 | 15.15483 | 317° | 9km/h | 22313m | -43.8m/s | 0°C | 0% | 0hPa | 0V | 00:00:00 | 00:00:00 | 00:00:00 | |
| 9A1FER-15 | 2026-09-02 12:47:50 | 46.01794 | 15.15407 | 65° | 7km/h | 23261m | 0.0m/s | 0°C | 0% | 0hPa | 0V | 00:00:00 | 00:00:00 | 00:00:00 | |
| 9A1FER-3 | 2026-09-02 12:47:48 | 46.01791 | 15.15401 | 52° | 7km/h | 23252m | 6.2m/s | 0°C | 0% | 0hPa | 0V | 00:00:00 | 00:00:00 | 00:00:00 | |
| 9A1FER-10 | 2026-09-02 12:47:37 | 46.01795 | 15.15378 | 143° | 13km/h | 23192m | 7.0m/s | 0°C | 0% | 0hPa | 0V | 00:00:00 | 00:00:00 | 00:00:00 | |
| PETON7-10 | 2026-09-02 12:47:36 | 46.01797 | 15.15378 | 191° | 15km/h | 23186m | 5.1m/s | 0°C | 0% | 0hPa | 0V | 00:00:00 | 00:00:00 | 00:00:00 | |
| 9A1FER-15 | 2026-09-02 12:47:34 | 46.01800 | 15.15377 | 151° | 16km/h | 23173m | 5.2m/s | 0°C | 0% | 0hPa | 0V | 00:00:00 | 00:00:00 | 00:00:00 | |
| 9A1FER-3 | 2026-09-02 12:47:33 | 46.01802 | 15.15376 | 153° | 18km/h | 23168m | 4.6m/s | 0°C | 0% | 0hPa | 0V | 00:00:00 | 00:00:00 | 00:00:00 | |
| 9A1FER-10 | 2026-09-02 12:47:22 | 46.01827 | 15.15326 | 119° | 24km/h | 23107m | 4.8m/s | 0°C | 0% | 0hPa | 0V | 00:00:00 | 00:00:00 | 00:00:00 | |
| PETON7-10 | 2026-09-02 12:47:21 | 46.01830 | 15.15320 | 129° | 24km/h | 23102m | 6.7m/s | 0°C | 0% | 0hPa | 0V | 00:00:00 | 00:00:00 | 00:00:00 | |
| 9A1FER-15 | 2026-09-02 12:47:19 | 46.01839 | 15.15306 | 126° | 24km/h | 23091m | 6.6m/s | 0°C | 0% | 0hPa | 0V | 00:00:00 | 00:00:00 | 00:00:00 | |
| 9A1FER-3 | 2026-09-02 12:47:18 | 46.01842 | 15.15298 | 110° | 24km/h | 23084m | 7.8m/s | 0°C | 0% | 0hPa | 0V | 00:00:00 | 00:00:00 | 00:00:00 | |
| 9A1FER-10 | 2026-09-02 12:47:07 | 46.01865 | 15.15207 | 90° | 22km/h | 23022m | 4.2m/s | 0°C | 0% | 0hPa | 0V | 00:00:00 | 00:00:00 | 00:00:00 | |
| PETON7-10 | 2026-09-02 12:47:06 | 46.01865 | 15.15198 | 93° | 22km/h | 23017m | 5.0m/s | 0°C | 0% | 0hPa | 0V | 00:00:00 | 00:00:00 | 00:00:00 | |
| 9A1FER-3 | 2026-09-02 12:47:03 | 46.01870 | 15.15175 | 102° | 20km/h | 23001m | 6.5m/s | 0°C | 0% | 0hPa | 0V | 00:00:00 | 00:00:00 | 00:00:00 | |
| 9A1FER-15 | 2026-09-02 12:47:01 | 46.01870 | 15.15158 | 84° | 20km/h | 22989m | 4.1m/s | 0°C | 0% | 0hPa | 0V | 00:00:00 | 00:00:00 | 00:00:00 | |
| 9A1FER-10 | 2026-09-02 12:46:52 | 46.01878 | 15.15089 | 87° | 18km/h | 22938m | 6.4m/s | 0°C | 0% | 0hPa | 0V | 00:00:00 | 00:00:00 | 00:00:00 | |
| PETON7-10 | 2026-09-02 12:46:51 | 46.01877 | 15.15084 | 80° | 18km/h | 22933m | 3.3m/s | 0°C | 0% | 0hPa | 0V | 00:00:00 | 00:00:00 | 00:00:00 | |
| 9A1FER-3 | 2026-09-02 12:46:48 | 46.01878 | 15.15069 | 108° | 16km/h | 22916m | 4.2m/s | 0°C | 0% | 0hPa | 0V | 00:00:00 | 00:00:00 | 00:00:00 | |
| 9A1FER-10 | 2026-09-02 12:46:38 | 46.01869 | 15.14997 | 101° | 16km/h | 22860m | 4.5m/s | 0°C | 0% | 0hPa | 0V | 00:00:00 | 00:00:00 | 00:00:00 | |
| PETON7-10 | 2026-09-02 12:46:36 | 46.01870 | 15.14991 | 105° | 18km/h | 22854m | 7.7m/s | 0°C | 0% | 0hPa | 0V | 00:00:00 | 00:00:00 | 00:00:00 | |
| 9A1FER-3 | 2026-09-02 12:46:33 | 46.01870 | 15.14982 | 68° | 22km/h | 22837m | 5.8m/s | 0°C | 0% | 0hPa | 0V | 00:00:00 | 00:00:00 | 00:00:00 | |
| 9A1FER-15 | 2026-09-02 12:46:31 | 46.01865 | 15.14972 | 42° | 24km/h | 22826m | 4.7m/s | 0°C | 0% | 0hPa | 0V | 00:00:00 | 00:00:00 | 00:00:00 | |
| 9A1FER-10 | 2026-09-02 12:46:22 | 46.01841 | 15.14923 | 42° | 24km/h | 22780m | 6.0m/s | 0°C | 0% | 0hPa | 0V | 00:00:00 | 00:00:00 | 00:00:00 | |
| PETON7-10 | 2026-09-02 12:46:21 | 46.01835 | 15.14915 | 46° | 22km/h | 22774m | 5.0m/s | 0°C | 0% | 0hPa | 0V | 00:00:00 | 00:00:00 | 00:00:00 | |
| 9A1FER-3 | 2026-09-02 12:46:18 | 46.01818 | 15.14891 | 30° | 18km/h | 22760m | 4.8m/s | 0°C | 0% | 0hPa | 0V | 00:00:00 | 00:00:00 | 00:00:00 | |
| 9A1FER-15 | 2026-09-02 12:46:16 | 46.01810 | 15.14884 | 54° | 15km/h | 22751m | 7.6m/s | 0°C | 0% | 0hPa | 0V | 00:00:00 | 00:00:00 | 00:00:00 | |
| 9A1FER-10 | 2026-09-02 12:46:07 | 46.01780 | 15.14840 | 25° | 13km/h | 22701m | 4.6m/s | 0°C | 0% | 0hPa | 0V | 00:00:00 | 00:00:00 | 00:00:00 | |
| 9A1FER-3 | 2026-09-02 12:46:03 | 46.01774 | 15.14832 | 355° | 13km/h | 22677m | 7.5m/s | 0°C | 0% | 0hPa | 0V | 00:00:00 | 00:00:00 | 00:00:00 | |
| 9A1FER-15 | 2026-09-02 12:46:01 | 46.01769 | 15.14829 | 38° | 13km/h | 22665m | 6.8m/s | 0°C | 0% | 0hPa | 0V | 00:00:00 | 00:00:00 | 00:00:00 | |
| PETON7-10 | 2026-09-02 12:45:52 | 46.01739 | 15.14807 | 7° | 11km/h | 22613m | 4.2m/s | 0°C | 0% | 0hPa | 0V | 00:00:00 | 00:00:00 | 00:00:00 | |
| 9A1FER-3 | 2026-09-02 12:45:48 | 46.01731 | 15.14804 | 19° | 11km/h | 22597m | 4.2m/s | 0°C | 0% | 0hPa | 0V | 00:00:00 | 00:00:00 | 00:00:00 | |
| 9A1FER-15 | 2026-09-02 12:45:46 | 46.01724 | 15.14806 | 337° | 9km/h | 22588m | 3.9m/s | 0°C | 0% | 0hPa | 0V | 00:00:00 | 00:00:00 | 00:00:00 | |
| 9A1FER-10 | 2026-09-02 12:45:37 | 46.01707 | 15.14823 | 308° | 7km/h | 22538m | 6.6m/s | 0°C | 0% | 0hPa | 0V | 00:00:00 | 00:00:00 | 00:00:00 | |
| PETON7-10 | 2026-09-02 12:45:34 | 46.01702 | 15.14825 | 37° | 11km/h | 22525m | 7.7m/s | 0°C | 0% | 0hPa | 0V | 00:00:00 | 00:00:00 | 00:00:00 | |
| 9A1FER-3 | 2026-09-02 12:45:33 | 46.01701 | 15.14824 | 106° | 11km/h | 22519m | 5.0m/s | 0°C | 0% | 0hPa | 0V | 00:00:00 | 00:00:00 | 00:00:00 | |
| 9A1FER-15 | 2026-09-02 12:45:31 | 46.01699 | 15.14826 | 315° | 11km/h | 22507m | 6.4m/s | 0°C | 0% | 0hPa | 0V | 00:00:00 | 00:00:00 | 00:00:00 | |
| 9A1FER-10 | 2026-09-02 12:45:21 | 46.01687 | 15.14847 | 311° | 11km/h | 22453m | 4.9m/s | 0°C | 0% | 0hPa | 0V | 00:00:00 | 00:00:00 | 00:00:00 | |
| 9A1FER-3 | 2026-09-02 12:45:19 | 46.01682 | 15.14863 | 269° | 9km/h | 22438m | 4.5m/s | 0°C | 0% | 0hPa | 0V | 00:00:00 | 00:00:00 | 00:00:00 | |
| PETON7-10 | 2026-09-02 12:45:17 | 46.01682 | 15.14867 | 299° | 11km/h | 22433m | 5.6m/s | 0°C | 0% | 0hPa | 0V | 00:00:00 | 00:00:00 | 00:00:00 | |
| 9A1FER-15 | 2026-09-02 12:45:16 | 46.01680 | 15.14870 | 318° | 9km/h | 22427m | 5.7m/s | 0°C | 0% | 0hPa | 0V | 00:00:00 | 00:00:00 | 00:00:00 | |
| 9A1FER-10 | 2026-09-02 12:45:05 | 46.01671 | 15.14886 | 358° | 11km/h | 22364m | 5.5m/s | 0°C | 0% | 0hPa | 0V | 00:00:00 | 00:00:00 | 00:00:00 | |
| 9A1FER-15 | 2026-09-02 12:45:01 | 46.01668 | 15.14877 | 151° | 9km/h | 22342m | 5.7m/s | 0°C | 0% | 0hPa | 0V | 00:00:00 | 00:00:00 | 00:00:00 | |
| 9A1FER-3 | 2026-09-02 12:44:47 | 46.01654 | 15.14870 | 10° | 11km/h | 22269m | 5.2m/s | 0°C | 0% | 0hPa | 0V | 00:00:00 | 00:00:00 | 00:00:00 | |
| PETON7-10 | 2026-09-02 12:44:46 | 46.01651 | 15.14870 | 344° | 7km/h | 22265m | 6.0m/s | 0°C | 0% | 0hPa | 0V | 00:00:00 | 00:00:00 | 00:00:00 | |
| 9A1FER-3 | 2026-09-02 12:44:32 | 46.01645 | 15.14832 | 118° | 7km/h | 22194m | 5.2m/s | 0°C | 0% | 0hPa | 0V | 00:00:00 | 00:00:00 | 00:00:00 | |
| 9A1FER-15 | 2026-09-02 12:44:31 | 46.01644 | 15.14829 | 58° | 7km/h | 22188m | 7.1m/s | 0°C | 0% | 0hPa | 0V | 00:00:00 | 00:00:00 | 00:00:00 | |
| 9A1FER-3 | 2026-09-02 12:44:17 | 46.01639 | 15.14808 | 320° | 13km/h | 22115m | 4.0m/s | 0°C | 0% | 0hPa | 0V | 00:00:00 | 00:00:00 | 00:00:00 | |
| 9A1FER-15 | 2026-09-02 12:44:16 | 46.01637 | 15.14811 | 333° | 13km/h | 22110m | 5.3m/s | 0°C | 0% | 0hPa | 0V | 00:00:00 | 00:00:00 | 00:00:00 | |
| 9A1FER-3 | 2026-09-02 12:44:02 | 46.01598 | 15.14806 | 42° | 16km/h | 22038m | 6.9m/s | 0°C | 0% | 0hPa | 0V | 00:00:00 | 00:00:00 | 00:00:00 | |
| 9A1FER-15 | 2026-09-02 12:44:01 | 46.01596 | 15.14804 | 36° | 15km/h | 22032m | 4.3m/s | 0°C | 0% | 0hPa | 0V | 00:00:00 | 00:00:00 | 00:00:00 | |
| 9A1FER-10 | 2026-09-02 12:43:57 | 46.01586 | 15.14810 | 327° | 15km/h | 22011m | 5.1m/s | 0°C | 0% | 0hPa | 0V | 00:00:00 | 00:00:00 | 00:00:00 | |
| PETON7-10 | 2026-09-02 12:43:54 | 46.01573 | 15.14813 | 359° | 16km/h | 21996m | 6.9m/s | 0°C | 0% | 0hPa | 0V | 00:00:00 | 00:00:00 | 00:00:00 | |
| 9A1FER-3 | 2026-09-02 12:43:47 | 46.01548 | 15.14799 | 28° | 13km/h | 21961m | 4.9m/s | 0°C | 0% | 0hPa | 0V | 00:00:00 | 00:00:00 | 00:00:00 | |
| 9A1FER-15 | 2026-09-02 12:43:46 | 46.01545 | 15.14798 | 20° | 13km/h | 21956m | 4.6m/s | 0°C | 0% | 0hPa | 0V | 00:00:00 | 00:00:00 | 00:00:00 | |
| 9A1FER-10 | 2026-09-02 12:43:41 | 46.01531 | 15.14798 | 8° | 13km/h | 21929m | 3.4m/s | 0°C | 0% | 0hPa | 0V | 00:00:00 | 00:00:00 | 00:00:00 | |
| PETON7-10 | 2026-09-02 12:43:39 | 46.01524 | 15.14795 | 24° | 11km/h | 21918m | 5.3m/s | 0°C | 0% | 0hPa | 0V | 00:00:00 | 00:00:00 | 00:00:00 | |
| 9A1FER-15 | 2026-09-02 12:43:31 | 46.01509 | 15.14767 | 28° | 11km/h | 21877m | 6.2m/s | 0°C | 0% | 0hPa | 0V | 00:00:00 | 00:00:00 | 00:00:00 | |
| 9A1FER-3 | 2026-09-02 12:43:30 | 46.01507 | 15.14765 | 31° | 11km/h | 21871m | 6.0m/s | 0°C | 0% | 0hPa | 0V | 00:00:00 | 00:00:00 | 00:00:00 | |
| 9A1FER-10 | 2026-09-02 12:43:26 | 46.01502 | 15.14754 | 61° | 13km/h | 21852m | 6.1m/s | 0°C | 0% | 0hPa | 0V | 00:00:00 | 00:00:00 | 00:00:00 | |
| PETON7-10 | 2026-09-02 12:43:23 | 46.01491 | 15.14743 | 9° | 15km/h | 21830m | 6.3m/s | 0°C | 0% | 0hPa | 0V | 00:00:00 | 00:00:00 | 00:00:00 | |
| 9A1FER-15 | 2026-09-02 12:43:16 | 46.01474 | 15.14731 | 64° | 15km/h | 21799m | 5.6m/s | 0°C | 0% | 0hPa | 0V | 00:00:00 | 00:00:00 | 00:00:00 | |
| 9A1FER-3 | 2026-09-02 12:43:15 | 46.01472 | 15.14728 | 54° | 15km/h | 21792m | 7.2m/s | 0°C | 0% | 0hPa | 0V | 00:00:00 | 00:00:00 | 00:00:00 | |
| 9A1FER-10 | 2026-09-02 12:43:11 | 46.01462 | 15.14722 | 15° | 20km/h | 21770m | 3.9m/s | 0°C | 0% | 0hPa | 0V | 00:00:00 | 00:00:00 | 00:00:00 | |
| PETON7-10 | 2026-09-02 12:43:06 | 46.01440 | 15.14717 | 21° | 18km/h | 21745m | 6.0m/s | 0°C | 0% | 0hPa | 0V | 00:00:00 | 00:00:00 | 00:00:00 | |
| 9A1FER-15 | 2026-09-02 12:43:01 | 46.01423 | 15.14715 | 340° | 20km/h | 21718m | 5.2m/s | 0°C | 0% | 0hPa | 0V | 00:00:00 | 00:00:00 | 00:00:00 | |
| 9A1FER-3 | 2026-09-02 12:43:00 | 46.01420 | 15.14716 | 353° | 22km/h | 21713m | 4.3m/s | 0°C | 0% | 0hPa | 0V | 00:00:00 | 00:00:00 | 00:00:00 | |
| PETON7-10 | 2026-09-02 12:42:48 | 46.01356 | 15.14724 | 5° | 24km/h | 21652m | 5.2m/s | 0°C | 0% | 0hPa | 0V | 00:00:00 | 00:00:00 | 00:00:00 | |
| 9A1FER-15 | 2026-09-02 12:42:46 | 46.01343 | 15.14722 | 5° | 24km/h | 21639m | 4.4m/s | 0°C | 0% | 0hPa | 0V | 00:00:00 | 00:00:00 | 00:00:00 | |
| 9A1FER-3 | 2026-09-02 12:42:45 | 46.01337 | 15.14722 | 356° | 24km/h | 21635m | 5.8m/s | 0°C | 0% | 0hPa | 0V | 00:00:00 | 00:00:00 | 00:00:00 | |
| 9A1FER-10 | 2026-09-02 12:42:32 | 46.01270 | 15.14764 | 312° | 16km/h | 21566m | 4.5m/s | 0°C | 0% | 0hPa | 0V | 00:00:00 | 00:00:00 | 00:00:00 | |
| 9A1FER-15 | 2026-09-02 12:42:31 | 46.01267 | 15.14771 | 297° | 15km/h | 21561m | 6.5m/s | 0°C | 0% | 0hPa | 0V | 00:00:00 | 00:00:00 | 00:00:00 | |
| 9A1FER-3 | 2026-09-02 12:42:30 | 46.01265 | 15.14776 | 298° | 16km/h | 21555m | 4.8m/s | 0°C | 0% | 0hPa | 0V | 00:00:00 | 00:00:00 | 00:00:00 | |
| 9A1FER-10 | 2026-09-02 12:42:17 | 46.01236 | 15.14813 | 8° | 13km/h | 21486m | 4.6m/s | 0°C | 0% | 0hPa | 0V | 00:00:00 | 00:00:00 | 00:00:00 | |
| 9A1FER-15 | 2026-09-02 12:42:16 | 46.01231 | 15.14812 | 19° | 11km/h | 21481m | 6.6m/s | 0°C | 0% | 0hPa | 0V | 00:00:00 | 00:00:00 | 00:00:00 | |
| 9A1FER-3 | 2026-09-02 12:42:15 | 46.01228 | 15.14810 | 17° | 13km/h | 21475m | 6.2m/s | 0°C | 0% | 0hPa | 0V | 00:00:00 | 00:00:00 | 00:00:00 | |
| PETON7-10 | 2026-09-02 12:42:11 | 46.01226 | 15.14827 | 242° | 13km/h | 21450m | 6.2m/s | 0°C | 0% | 0hPa | 0V | 00:00:00 | 00:00:00 | 00:00:00 | |
| 9A1FER-10 | 2026-09-02 12:42:02 | 46.01224 | 15.14842 | 249° | 13km/h | 21401m | 4.2m/s | 0°C | 0% | 0hPa | 0V | 00:00:00 | 00:00:00 | 00:00:00 | |
| 9A1FER-15 | 2026-09-02 12:42:01 | 46.01226 | 15.14847 | 226° | 15km/h | 21395m | 6.7m/s | 0°C | 0% | 0hPa | 0V | 00:00:00 | 00:00:00 | 00:00:00 | |
| 9A1FER-3 | 2026-09-02 12:42:00 | 46.01230 | 15.14851 | 220° | 15km/h | 21390m | 4.6m/s | 0°C | 0% | 0hPa | 0V | 00:00:00 | 00:00:00 | 00:00:00 | |
| PETON7-10 | 2026-09-02 12:41:56 | 46.01240 | 15.14861 | 141° | 13km/h | 21369m | 5.1m/s | 0°C | 0% | 0hPa | 0V | 00:00:00 | 00:00:00 | 00:00:00 | |
| 9A1FER-15 | 2026-09-02 12:41:46 | 46.01267 | 15.14869 | 157° | 13km/h | 21314m | 5.1m/s | 0°C | 0% | 0hPa | 0V | 00:00:00 | 00:00:00 | 00:00:00 | |
| 9A1FER-3 | 2026-09-02 12:41:43 | 46.01271 | 15.14861 | 137° | 13km/h | 21298m | 3.6m/s | 0°C | 0% | 0hPa | 0V | 00:00:00 | 00:00:00 | 00:00:00 | |
| PETON7-10 | 2026-09-02 12:41:41 | 46.01277 | 15.14858 | 174° | 15km/h | 21286m | 5.1m/s | 0°C | 0% | 0hPa | 0V | 00:00:00 | 00:00:00 | 00:00:00 | |
| 9A1FER-15 | 2026-09-02 12:41:31 | 46.01309 | 15.14846 | 147° | 13km/h | 21233m | 5.7m/s | 0°C | 0% | 0hPa | 0V | 00:00:00 | 00:00:00 | 00:00:00 | |
| 9A1FER-3 | 2026-09-02 12:41:28 | 46.01319 | 15.14842 | 183° | 13km/h | 21217m | 5.2m/s | 0°C | 0% | 0hPa | 0V | 00:00:00 | 00:00:00 | 00:00:00 | |
| PETON7-10 | 2026-09-02 12:41:26 | 46.01329 | 15.14843 | 186° | 13km/h | 21206m | 6.4m/s | 0°C | 0% | 0hPa | 0V | 00:00:00 | 00:00:00 | 00:00:00 | |
| 9A1FER-15 | 2026-09-02 12:41:16 | 46.01355 | 15.14842 | 150° | 11km/h | 21154m | 3.0m/s | 0°C | 0% | 0hPa | 0V | 00:00:00 | 00:00:00 | 00:00:00 | |
| 9A1FER-3 | 2026-09-02 12:41:13 | 46.01364 | 15.14836 | 148° | 11km/h | 21139m | 4.2m/s | 0°C | 0% | 0hPa | 0V | 00:00:00 | 00:00:00 | 00:00:00 | |
| PETON7-10 | 2026-09-02 12:41:11 | 46.01368 | 15.14832 | 142° | 11km/h | 21128m | 5.4m/s | 0°C | 0% | 0hPa | 0V | 00:00:00 | 00:00:00 | 00:00:00 | |
| 9A1FER-10 | 2026-09-02 12:41:09 | 46.01372 | 15.14830 | 193° | 11km/h | 21118m | 5.0m/s | 0°C | 0% | 0hPa | 0V | 00:00:00 | 00:00:00 | 00:00:00 | |
| 9A1FER-15 | 2026-09-02 12:41:01 | 46.01393 | 15.14827 | 157° | 11km/h | 21080m | 6.0m/s | 0°C | 0% | 0hPa | 0V | 00:00:00 | 00:00:00 | 00:00:00 | |
| 9A1FER-3 | 2026-09-02 12:40:57 | 46.01406 | 15.14827 | 208° | 9km/h | 21056m | 4.9m/s | 0°C | 0% | 0hPa | 0V | 00:00:00 | 00:00:00 | 00:00:00 | |
| PETON7-10 | 2026-09-02 12:40:55 | 46.01410 | 15.14827 | 145° | 7km/h | 21045m | 4.7m/s | 0°C | 0% | 0hPa | 0V | 00:00:00 | 00:00:00 | 00:00:00 | |
| 9A1FER-10 | 2026-09-02 12:40:52 | 46.01419 | 15.14820 | 178° | 7km/h | 21028m | 6.0m/s | 0°C | 0% | 0hPa | 0V | 00:00:00 | 00:00:00 | 00:00:00 | |
| 9A1FER-15 | 2026-09-02 12:40:46 | 46.01427 | 15.14820 | 144° | 5km/h | 20997m | 5.8m/s | 0°C | 0% | 0hPa | 0V | 00:00:00 | 00:00:00 | 00:00:00 | |
| 9A1FER-3 | 2026-09-02 12:40:42 | 46.01435 | 15.14811 | 161° | 7km/h | 20974m | 3.3m/s | 0°C | 0% | 0hPa | 0V | 00:00:00 | 00:00:00 | 00:00:00 | |
| PETON7-10 | 2026-09-02 12:40:40 | 46.01437 | 15.14808 | 126° | 7km/h | 20964m | 5.2m/s | 0°C | 0% | 0hPa | 0V | 00:00:00 | 00:00:00 | 00:00:00 | |
| 9A1FER-15 | 2026-09-02 12:40:31 | 46.01438 | 15.14797 | 28° | 9km/h | 20922m | 3.2m/s | 0°C | 0% | 0hPa | 0V | 00:00:00 | 00:00:00 | 00:00:00 | |
| 9A1FER-3 | 2026-09-02 12:40:27 | 46.01431 | 15.14783 | 34° | 7km/h | 20902m | 5.9m/s | 0°C | 0% | 0hPa | 0V | 00:00:00 | 00:00:00 | 00:00:00 | |
| PETON7-10 | 2026-09-02 12:40:25 | 46.01426 | 15.14780 | 21° | 5km/h | 20889m | 6.1m/s | 0°C | 0% | 0hPa | 0V | 00:00:00 | 00:00:00 | 00:00:00 | |
| 9A1FER-15 | 2026-09-02 12:40:16 | 46.01412 | 15.14775 | 5° | 5km/h | 20843m | 4.0m/s | 0°C | 0% | 0hPa | 0V | 00:00:00 | 00:00:00 | 00:00:00 | |
| 9A1FER-3 | 2026-09-02 12:40:13 | 46.01408 | 15.14769 | 31° | 5km/h | 20822m | 7.6m/s | 0°C | 0% | 0hPa | 0V | 00:00:00 | 00:00:00 | 00:00:00 | |
| 9A1FER-10 | 2026-09-02 12:40:11 | 46.01407 | 15.14768 | 27° | 5km/h | 20816m | 4.4m/s | 0°C | 0% | 0hPa | 0V | 00:00:00 | 00:00:00 | 00:00:00 | |
| PETON7-10 | 2026-09-02 12:40:09 | 46.01407 | 15.14766 | 128° | 7km/h | 20804m | 4.1m/s | 0°C | 0% | 0hPa | 0V | 00:00:00 | 00:00:00 | 00:00:00 | |
| 9A1FER-15 | 2026-09-02 12:40:01 | 46.01409 | 15.14756 | 174° | 9km/h | 20764m | 5.7m/s | 0°C | 0% | 0hPa | 0V | 00:00:00 | 00:00:00 | 00:00:00 | |
| 9A1FER-3 | 2026-09-02 12:39:57 | 46.01416 | 15.14752 | 144° | 9km/h | 20744m | 5.0m/s | 0°C | 0% | 0hPa | 0V | 00:00:00 | 00:00:00 | 00:00:00 | |
| 9A1FER-10 | 2026-09-02 12:39:56 | 46.01417 | 15.14750 | 114° | 7km/h | 20738m | 6.6m/s | 0°C | 0% | 0hPa | 0V | 00:00:00 | 00:00:00 | 00:00:00 | |
| PETON7-10 | 2026-09-02 12:39:53 | 46.01423 | 15.14744 | 199° | 7km/h | 20719m | 6.4m/s | 0°C | 0% | 0hPa | 0V | 00:00:00 | 00:00:00 | 00:00:00 | |
| 9A1FER-15 | 2026-09-02 12:39:46 | 46.01439 | 15.14749 | 188° | 5km/h | 20684m | 5.1m/s | 0°C | 0% | 0hPa | 0V | 00:00:00 | 00:00:00 | 00:00:00 | |
| 9A1FER-3 | 2026-09-02 12:39:42 | 46.01446 | 15.14745 | 231° | 5km/h | 20663m | 6.2m/s | 0°C | 0% | 0hPa | 0V | 00:00:00 | 00:00:00 | 00:00:00 | |
| 9A1FER-10 | 2026-09-02 12:39:40 | 46.01447 | 15.14749 | 205° | 5km/h | 20653m | 6.6m/s | 0°C | 0% | 0hPa | 0V | 00:00:00 | 00:00:00 | 00:00:00 | |
| PETON7-10 | 2026-09-02 12:39:37 | 46.01446 | 15.14750 | 335° | 5km/h | 20636m | 4.8m/s | 0°C | 0% | 0hPa | 0V | 00:00:00 | 00:00:00 | 00:00:00 | |
| 9A1FER-15 | 2026-09-02 12:39:31 | 46.01449 | 15.14749 | 223° | 7km/h | 20605m | 6.2m/s | 0°C | 0% | 0hPa | 0V | 00:00:00 | 00:00:00 | 00:00:00 | |
| 9A1FER-3 | 2026-09-02 12:39:27 | 46.01446 | 15.14751 | 2° | 7km/h | 20583m | 4.2m/s | 0°C | 0% | 0hPa | 0V | 00:00:00 | 00:00:00 | 00:00:00 | |
| 9A1FER-10 | 2026-09-02 12:39:25 | 46.01445 | 15.14746 | 98° | 9km/h | 20572m | 6.4m/s | 0°C | 0% | 0hPa | 0V | 00:00:00 | 00:00:00 | 00:00:00 | |
| PETON7-10 | 2026-09-02 12:39:21 | 46.01450 | 15.14737 | 237° | 7km/h | 20551m | 6.5m/s | 0°C | 0% | 0hPa | 0V | 00:00:00 | 00:00:00 | 00:00:00 | |
| 9A1FER-15 | 2026-09-02 12:39:16 | 46.01445 | 15.14742 | 3° | 7km/h | 20522m | 6.2m/s | 0°C | 0% | 0hPa | 0V | 00:00:00 | 00:00:00 | 00:00:00 | |
| 9A1FER-3 | 2026-09-02 12:39:11 | 46.01449 | 15.14726 | 137° | 9km/h | 20497m | 4.6m/s | 0°C | 0% | 0hPa | 0V | 00:00:00 | 00:00:00 | 00:00:00 | |
| 9A1FER-10 | 2026-09-02 12:39:10 | 46.01451 | 15.14724 | 118° | 7km/h | 20492m | 6.5m/s | 0°C | 0% | 0hPa | 0V | 00:00:00 | 00:00:00 | 00:00:00 | |
| PETON7-10 | 2026-09-02 12:39:06 | 46.01455 | 15.14721 | 178° | 11km/h | 20472m | 5.5m/s | 0°C | 0% | 0hPa | 0V | 00:00:00 | 00:00:00 | 00:00:00 | |
| 9A1FER-15 | 2026-09-02 12:39:01 | 46.01456 | 15.14707 | 107° | 16km/h | 20444m | 5.7m/s | 0°C | 0% | 0hPa | 0V | 00:00:00 | 00:00:00 | 00:00:00 | |
| 9A1FER-3 | 2026-09-02 12:38:55 | 46.01462 | 15.14688 | 74° | 20km/h | 20413m | 5.8m/s | 0°C | 0% | 0hPa | 0V | 00:00:00 | 00:00:00 | 00:00:00 | |
| 9A1FER-10 | 2026-09-02 12:38:54 | 46.01461 | 15.14683 | 58° | 20km/h | 20408m | 4.6m/s | 0°C | 0% | 0hPa | 0V | 00:00:00 | 00:00:00 | 00:00:00 | |
| PETON7-10 | 2026-09-02 12:38:51 | 46.01458 | 15.14666 | 110° | 22km/h | 20394m | 4.4m/s | 0°C | 0% | 0hPa | 0V | 00:00:00 | 00:00:00 | 00:00:00 | |
| 9A1FER-15 | 2026-09-02 12:38:46 | 46.01467 | 15.14628 | 79° | 20km/h | 20369m | 5.6m/s | 0°C | 0% | 0hPa | 0V | 00:00:00 | 00:00:00 | 00:00:00 | |
| 9A1FER-3 | 2026-09-02 12:38:40 | 46.01468 | 15.14597 | 121° | 22km/h | 20336m | 7.0m/s | 0°C | 0% | 0hPa | 0V | 00:00:00 | 00:00:00 | 00:00:00 | |
| 9A1FER-10 | 2026-09-02 12:38:39 | 46.01472 | 15.14587 | 116° | 22km/h | 20330m | 5.1m/s | 0°C | 0% | 0hPa | 0V | 00:00:00 | 00:00:00 | 00:00:00 | |
| 9A1FER-15 | 2026-09-02 12:38:31 | 46.01485 | 15.14526 | 115° | 20km/h | 20287m | 5.1m/s | 0°C | 0% | 0hPa | 0V | 00:00:00 | 00:00:00 | 00:00:00 | |
| PETON7-10 | 2026-09-02 12:38:30 | 46.01487 | 15.14519 | 106° | 16km/h | 20281m | 6.4m/s | 0°C | 0% | 0hPa | 0V | 00:00:00 | 00:00:00 | 00:00:00 | |
| 9A1FER-3 | 2026-09-02 12:38:24 | 46.01497 | 15.14473 | 106° | 18km/h | 20248m | 7.4m/s | 0°C | 0% | 0hPa | 0V | 00:00:00 | 00:00:00 | 00:00:00 | |
| 9A1FER-15 | 2026-09-02 12:38:16 | 46.01518 | 15.14425 | 94° | 15km/h | 20201m | 5.3m/s | 0°C | 0% | 0hPa | 0V | 00:00:00 | 00:00:00 | 00:00:00 | |
| 9A1FER-10 | 2026-09-02 12:38:09 | 46.01527 | 15.14390 | 130° | 13km/h | 20163m | 5.8m/s | 0°C | 0% | 0hPa | 0V | 00:00:00 | 00:00:00 | 00:00:00 | |
| 9A1FER-3 | 2026-09-02 12:38:07 | 46.01532 | 15.14379 | 110° | 13km/h | 20153m | 6.6m/s | 0°C | 0% | 0hPa | 0V | 00:00:00 | 00:00:00 | 00:00:00 | |
| 9A1FER-15 | 2026-09-02 12:38:01 | 46.01536 | 15.14354 | 65° | 11km/h | 20121m | 4.9m/s | 0°C | 0% | 0hPa | 0V | 00:00:00 | 00:00:00 | 00:00:00 | |
| OE3JTB-15 | 2026-09-02 12:38:00 | 46.01536 | 15.14352 | 79° | 24km/h | 20116m | 5.4m/s | 0°C | 0% | 0hPa | 0V | 00:00:00 | 00:00:00 | 00:00:00 | |
| 9A1FER-10 | 2026-09-02 12:37:54 | 46.01544 | 15.14329 | 110° | 13km/h | 20084m | 7.4m/s | 0°C | 0% | 0hPa | 0V | 00:00:00 | 00:00:00 | 00:00:00 | |
| 9A1FER-3 | 2026-09-02 12:37:52 | 46.01548 | 15.14323 | 132° | 15km/h | 20073m | 6.2m/s | 0°C | 0% | 0hPa | 0V | 00:00:00 | 00:00:00 | 00:00:00 | |
| 9A1FER-10 | 2026-09-02 12:37:39 | 46.01584 | 15.14297 | 163° | 20km/h | 20004m | 6.8m/s | 0°C | 0% | 0hPa | 0V | 00:00:00 | 00:00:00 | 00:00:00 | |
| 9A1FER-3 | 2026-09-02 12:37:37 | 46.01594 | 15.14295 | 179° | 18km/h | 19993m | 7.5m/s | 0°C | 0% | 0hPa | 0V | 00:00:00 | 00:00:00 | 00:00:00 | |
| 9A1FER-15 | 2026-09-02 12:37:31 | 46.01617 | 15.14282 | 145° | 24km/h | 19964m | 3.5m/s | 0°C | 0% | 0hPa | 0V | 00:00:00 | 00:00:00 | 00:00:00 | |
| 9A1FER-10 | 2026-09-02 12:37:23 | 46.01654 | 15.14248 | 142° | 29km/h | 19922m | 4.6m/s | 0°C | 0% | 0hPa | 0V | 00:00:00 | 00:00:00 | 00:00:00 | |
| 9A1FER-3 | 2026-09-02 12:37:22 | 46.01658 | 15.14243 | 137° | 29km/h | 19917m | 4.5m/s | 0°C | 0% | 0hPa | 0V | 00:00:00 | 00:00:00 | 00:00:00 | |
| 9A1FER-15 | 2026-09-02 12:37:16 | 46.01691 | 15.14196 | 122° | 29km/h | 19882m | 4.8m/s | 0°C | 0% | 0hPa | 0V | 00:00:00 | 00:00:00 | 00:00:00 | |
| 9A1FER-10 | 2026-09-02 12:37:08 | 46.01714 | 15.14121 | 121° | 31km/h | 19843m | 5.8m/s | 0°C | 0% | 0hPa | 0V | 00:00:00 | 00:00:00 | 00:00:00 | |
| 9A1FER-15 | 2026-09-02 12:37:00 | 46.01736 | 15.14047 | 103° | 31km/h | 19801m | 4.5m/s | 0°C | 0% | 0hPa | 0V | 00:00:00 | 00:00:00 | 00:00:00 | |
| 9A1FER-10 | 2026-09-02 12:36:53 | 46.01751 | 15.13970 | 108° | 29km/h | 19767m | 4.4m/s | 0°C | 0% | 0hPa | 0V | 00:00:00 | 00:00:00 | 00:00:00 | |
| 9A1FER-3 | 2026-09-02 12:36:47 | 46.01761 | 15.13904 | 100° | 29km/h | 19735m | 5.4m/s | 0°C | 0% | 0hPa | 0V | 00:00:00 | 00:00:00 | 00:00:00 | |
| 9A1FER-15 | 2026-09-02 12:36:45 | 46.01762 | 15.13884 | 98° | 31km/h | 19725m | 6.3m/s | 0°C | 0% | 0hPa | 0V | 00:00:00 | 00:00:00 | 00:00:00 | |
| 9A1FER-10 | 2026-09-02 12:36:38 | 46.01765 | 15.13810 | 101° | 31km/h | 19689m | 5.1m/s | 0°C | 0% | 0hPa | 0V | 00:00:00 | 00:00:00 | 00:00:00 | |
| 9A1FER-3 | 2026-09-02 12:36:31 | 46.01762 | 15.13735 | 64° | 27km/h | 19653m | 4.9m/s | 0°C | 0% | 0hPa | 0V | 00:00:00 | 00:00:00 | 00:00:00 | |
| 9A1FER-15 | 2026-09-02 12:36:30 | 46.01759 | 15.13724 | 69° | 27km/h | 19648m | 6.3m/s | 0°C | 0% | 0hPa | 0V | 00:00:00 | 00:00:00 | 00:00:00 | |
| 9A1FER-10 | 2026-09-02 12:36:23 | 46.01745 | 15.13650 | 68° | 24km/h | 19611m | 6.2m/s | 0°C | 0% | 0hPa | 0V | 00:00:00 | 00:00:00 | 00:00:00 | |
| 9A1FER-3 | 2026-09-02 12:36:16 | 46.01732 | 15.13593 | 92° | 20km/h | 19574m | 6.1m/s | 0°C | 0% | 0hPa | 0V | 00:00:00 | 00:00:00 | 00:00:00 | |
| 9A1FER-15 | 2026-09-02 12:36:15 | 46.01732 | 15.13585 | 90° | 20km/h | 19568m | 5.1m/s | 0°C | 0% | 0hPa | 0V | 00:00:00 | 00:00:00 | 00:00:00 | |
| 9A1FER-10 | 2026-09-02 12:36:08 | 46.01724 | 15.13530 | 93° | 16km/h | 19533m | 6.0m/s | 0°C | 0% | 0hPa | 0V | 00:00:00 | 00:00:00 | 00:00:00 | |
| 9A1FER-3 | 2026-09-02 12:36:00 | 46.01733 | 15.13484 | 97° | 18km/h | 19491m | 6.3m/s | 0°C | 0% | 0hPa | 0V | 00:00:00 | 00:00:00 | 00:00:00 | |
| 9A1FER-10 | 2026-09-02 12:35:53 | 46.01742 | 15.13443 | 106° | 20km/h | 19456m | 5.5m/s | 0°C | 0% | 0hPa | 0V | 00:00:00 | 00:00:00 | 00:00:00 | |
| 9A1FER-3 | 2026-09-02 12:35:45 | 46.01762 | 15.13390 | 104° | 22km/h | 19417m | 4.1m/s | 0°C | 0% | 0hPa | 0V | 00:00:00 | 00:00:00 | 00:00:00 | |
| 9A1FER-10 | 2026-09-02 12:35:38 | 46.01770 | 15.13342 | 117° | 26km/h | 19384m | 7.0m/s | 0°C | 0% | 0hPa | 0V | 00:00:00 | 00:00:00 | 00:00:00 | |
| 9A1FER-15 | 2026-09-02 12:35:30 | 46.01795 | 15.13286 | 111° | 27km/h | 19341m | 5.5m/s | 0°C | 0% | 0hPa | 0V | 00:00:00 | 00:00:00 | 00:00:00 | |
| 9A1FER-10 | 2026-09-02 12:35:23 | 46.01823 | 15.13227 | 141° | 26km/h | 19303m | 5.0m/s | 0°C | 0% | 0hPa | 0V | 00:00:00 | 00:00:00 | 00:00:00 | |
| 9A1FER-3 | 2026-09-02 12:35:15 | 46.01849 | 15.13164 | 128° | 24km/h | 19265m | 3.3m/s | 0°C | 0% | 0hPa | 0V | 00:00:00 | 00:00:00 | 00:00:00 | |
| 9A1FER-10 | 2026-09-02 12:35:08 | 46.01873 | 15.13110 | 114° | 24km/h | 19232m | 5.5m/s | 0°C | 0% | 0hPa | 0V | 00:00:00 | 00:00:00 | 00:00:00 | |
| 9A1FER-15 | 2026-09-02 12:35:00 | 46.01895 | 15.13053 | 107° | 26km/h | 19190m | 5.0m/s | 0°C | 0% | 0hPa | 0V | 00:00:00 | 00:00:00 | 00:00:00 | |
| 9A1FER-10 | 2026-09-02 12:34:53 | 46.01907 | 15.12994 | 131° | 26km/h | 19157m | 4.4m/s | 0°C | 0% | 0hPa | 0V | 00:00:00 | 00:00:00 | 00:00:00 | |
| 9A1FER-3 | 2026-09-02 12:34:45 | 46.01918 | 15.12921 | 91° | 22km/h | 19116m | 4.3m/s | 0°C | 0% | 0hPa | 0V | 00:00:00 | 00:00:00 | 00:00:00 | |
| 9A1FER-10 | 2026-09-02 12:34:39 | 46.01922 | 15.12863 | 95° | 20km/h | 19079m | 5.0m/s | 0°C | 0% | 0hPa | 0V | 00:00:00 | 00:00:00 | 00:00:00 | |
| 9A1FER-15 | 2026-09-02 12:34:30 | 46.01930 | 15.12803 | 81° | 18km/h | 19040m | 7.0m/s | 0°C | 0% | 0hPa | 0V | 00:00:00 | 00:00:00 | 00:00:00 | |
| 9A1FER-3 | 2026-09-02 12:34:29 | 46.01929 | 15.12797 | 70° | 16km/h | 19034m | 5.4m/s | 0°C | 0% | 0hPa | 0V | 00:00:00 | 00:00:00 | 00:00:00 | |
| 9A1FER-10 | 2026-09-02 12:34:24 | 46.01923 | 15.12762 | 118° | 15km/h | 19004m | 6.0m/s | 0°C | 0% | 0hPa | 0V | 00:00:00 | 00:00:00 | 00:00:00 | |
| 9A1FER-15 | 2026-09-02 12:34:15 | 46.01913 | 15.12715 | 47° | 13km/h | 18961m | 4.5m/s | 0°C | 0% | 0hPa | 0V | 00:00:00 | 00:00:00 | 00:00:00 | |
| 9A1FER-3 | 2026-09-02 12:34:13 | 46.01911 | 15.12708 | 96° | 13km/h | 18952m | 4.9m/s | 0°C | 0% | 0hPa | 0V | 00:00:00 | 00:00:00 | 00:00:00 | |
| 9A1FER-10 | 2026-09-02 12:34:08 | 46.01908 | 15.12684 | 64° | 13km/h | 18929m | 6.5m/s | 0°C | 0% | 0hPa | 0V | 00:00:00 | 00:00:00 | 00:00:00 | |
| 9A1FER-15 | 2026-09-02 12:34:00 | 46.01890 | 15.12656 | 34° | 7km/h | 18889m | 5.9m/s | 0°C | 0% | 0hPa | 0V | 00:00:00 | 00:00:00 | 00:00:00 | |
| 9A1FER-3 | 2026-09-02 12:33:58 | 46.01887 | 15.12651 | 74° | 7km/h | 18876m | 5.6m/s | 0°C | 0% | 0hPa | 0V | 00:00:00 | 00:00:00 | 00:00:00 | |
| 9A1FER-10 | 2026-09-02 12:33:53 | 46.01883 | 15.12636 | 51° | 7km/h | 18849m | 4.3m/s | 0°C | 0% | 0hPa | 0V | 00:00:00 | 00:00:00 | 00:00:00 | |
| 9A1FER-15 | 2026-09-02 12:33:45 | 46.01877 | 15.12625 | 146° | 7km/h | 18805m | 6.0m/s | 0°C | 0% | 0hPa | 0V | 00:00:00 | 00:00:00 | 00:00:00 | |
| 9A1FER-3 | 2026-09-02 12:33:43 | 46.01881 | 15.12620 | 141° | 7km/h | 18794m | 5.4m/s | 0°C | 0% | 0hPa | 0V | 00:00:00 | 00:00:00 | 00:00:00 | |
| 9A1FER-10 | 2026-09-02 12:33:38 | 46.01886 | 15.12612 | 260° | 9km/h | 18768m | 7.8m/s | 0°C | 0% | 0hPa | 0V | 00:00:00 | 00:00:00 | 00:00:00 | |
| 9A1FER-15 | 2026-09-02 12:33:30 | 46.01901 | 15.12609 | 161° | 13km/h | 18723m | 4.1m/s | 0°C | 0% | 0hPa | 0V | 00:00:00 | 00:00:00 | 00:00:00 | |
| 9A1FER-3 | 2026-09-02 12:33:28 | 46.01906 | 15.12608 | 182° | 16km/h | 18712m | 5.7m/s | 0°C | 0% | 0hPa | 0V | 00:00:00 | 00:00:00 | 00:00:00 | |
| 9A1FER-10 | 2026-09-02 12:33:23 | 46.01916 | 15.12589 | 152° | 16km/h | 18687m | 6.1m/s | 0°C | 0% | 0hPa | 0V | 00:00:00 | 00:00:00 | 00:00:00 | |
| 9A1FER-15 | 2026-09-02 12:33:15 | 46.01938 | 15.12570 | 114° | 22km/h | 18644m | 4.2m/s | 0°C | 0% | 0hPa | 0V | 00:00:00 | 00:00:00 | 00:00:00 | |
| 9A1FER-3 | 2026-09-02 12:33:12 | 46.01951 | 15.12554 | 176° | 22km/h | 18627m | 4.8m/s | 0°C | 0% | 0hPa | 0V | 00:00:00 | 00:00:00 | 00:00:00 | |
| 9A1FER-10 | 2026-09-02 12:33:08 | 46.01966 | 15.12542 | 133° | 27km/h | 18604m | 6.2m/s | 0°C | 0% | 0hPa | 0V | 00:00:00 | 00:00:00 | 00:00:00 | |
| 9A1FER-15 | 2026-09-02 12:33:00 | 46.01996 | 15.12501 | 160° | 33km/h | 18560m | 5.3m/s | 0°C | 0% | 0hPa | 0V | 00:00:00 | 00:00:00 | 00:00:00 | |
| 9A1FER-3 | 2026-09-02 12:32:57 | 46.02017 | 15.12479 | 133° | 31km/h | 18542m | 5.6m/s | 0°C | 0% | 0hPa | 0V | 00:00:00 | 00:00:00 | 00:00:00 | |
| 9A1FER-10 | 2026-09-02 12:32:54 | 46.02042 | 15.12447 | 135° | 31km/h | 18519m | 6.6m/s | 0°C | 0% | 0hPa | 0V | 00:00:00 | 00:00:00 | 00:00:00 | |
| 9A1FER-15 | 2026-09-02 12:32:45 | 46.02082 | 15.12378 | 133° | 37km/h | 18476m | 5.7m/s | 0°C | 0% | 0hPa | 0V | 00:00:00 | 00:00:00 | 00:00:00 | |
| 9A1FER-3 | 2026-09-02 12:32:40 | 46.02103 | 15.12331 | 128° | 40km/h | 18451m | 5.6m/s | 0°C | 0% | 0hPa | 0V | 00:00:00 | 00:00:00 | 00:00:00 | |
| 9A1FER-10 | 2026-09-02 12:32:38 | 46.02115 | 15.12312 | 128° | 40km/h | 18442m | 6.2m/s | 0°C | 0% | 0hPa | 0V | 00:00:00 | 00:00:00 | 00:00:00 | |
| 9A1FER-15 | 2026-09-02 12:32:30 | 46.02160 | 15.12209 | 119° | 42km/h | 18393m | 3.8m/s | 0°C | 0% | 0hPa | 0V | 00:00:00 | 00:00:00 | 00:00:00 | |
| 9A1FER-3 | 2026-09-02 12:32:25 | 46.02180 | 15.12145 | 115° | 46km/h | 18366m | 7.0m/s | 0°C | 0% | 0hPa | 0V | 00:00:00 | 00:00:00 | 00:00:00 | |
| 9A1FER-10 | 2026-09-02 12:32:23 | 46.02189 | 15.12117 | 119° | 47km/h | 18355m | 6.8m/s | 0°C | 0% | 0hPa | 0V | 00:00:00 | 00:00:00 | 00:00:00 | |
| 9A1FER-15 | 2026-09-02 12:32:15 | 46.02225 | 15.11996 | 105° | 49km/h | 18314m | 5.2m/s | 0°C | 0% | 0hPa | 0V | 00:00:00 | 00:00:00 | 00:00:00 | |
| 9A1FER-3 | 2026-09-02 12:32:09 | 46.02251 | 15.11899 | 115° | 53km/h | 18283m | 5.5m/s | 0°C | 0% | 0hPa | 0V | 00:00:00 | 00:00:00 | 00:00:00 | |
| 9A1FER-10 | 2026-09-02 12:32:08 | 46.02256 | 15.11882 | 113° | 51km/h | 18279m | 3.7m/s | 0°C | 0% | 0hPa | 0V | 00:00:00 | 00:00:00 | 00:00:00 | |
| 9A1FER-15 | 2026-09-02 12:32:00 | 46.02278 | 15.11743 | 111° | 57km/h | 18236m | 6.6m/s | 0°C | 0% | 0hPa | 0V | 00:00:00 | 00:00:00 | 00:00:00 | |
| 9A1FER-3 | 2026-09-02 12:31:54 | 46.02294 | 15.11627 | 94° | 55km/h | 18206m | 4.2m/s | 0°C | 0% | 0hPa | 0V | 00:00:00 | 00:00:00 | 00:00:00 | |
| 9A1FER-10 | 2026-09-02 12:31:53 | 46.02294 | 15.11610 | 90° | 57km/h | 18201m | 5.4m/s | 0°C | 0% | 0hPa | 0V | 00:00:00 | 00:00:00 | 00:00:00 | |
| 9A1FER-15 | 2026-09-02 12:31:45 | 46.02303 | 15.11443 | 88° | 58km/h | 18159m | 5.1m/s | 0°C | 0% | 0hPa | 0V | 00:00:00 | 00:00:00 | 00:00:00 | |
| 9A1FER-3 | 2026-09-02 12:31:39 | 46.02301 | 15.11324 | 96° | 62km/h | 18130m | 4.9m/s | 0°C | 0% | 0hPa | 0V | 00:00:00 | 00:00:00 | 00:00:00 | |
| 9A1FER-10 | 2026-09-02 12:31:38 | 46.02302 | 15.11301 | 90° | 60km/h | 18125m | 5.6m/s | 0°C | 0% | 0hPa | 0V | 00:00:00 | 00:00:00 | 00:00:00 | |
| 9A1FER-15 | 2026-09-02 12:31:30 | 46.02288 | 15.11123 | 92° | 57km/h | 18087m | 4.9m/s | 0°C | 0% | 0hPa | 0V | 00:00:00 | 00:00:00 | 00:00:00 | |
| 9A1FER-3 | 2026-09-02 12:31:24 | 46.02279 | 15.10996 | 77° | 55km/h | 18056m | 5.8m/s | 0°C | 0% | 0hPa | 0V | 00:00:00 | 00:00:00 | 00:00:00 | |
| 9A1FER-10 | 2026-09-02 12:31:23 | 46.02275 | 15.10976 | 79° | 55km/h | 18051m | 4.3m/s | 0°C | 0% | 0hPa | 0V | 00:00:00 | 00:00:00 | 00:00:00 | |
| 9A1FER-15 | 2026-09-02 12:31:15 | 46.02266 | 15.10817 | 77° | 53km/h | 18014m | 6.9m/s | 0°C | 0% | 0hPa | 0V | 00:00:00 | 00:00:00 | 00:00:00 | |
| 9A1FER-10 | 2026-09-02 12:31:08 | 46.02243 | 15.10684 | 87° | 49km/h | 17978m | 7.3m/s | 0°C | 0% | 0hPa | 0V | 00:00:00 | 00:00:00 | 00:00:00 | |
| 9A1FER-15 | 2026-09-02 12:31:00 | 46.02216 | 15.10543 | 72° | 44km/h | 17937m | 3.7m/s | 0°C | 0% | 0hPa | 0V | 00:00:00 | 00:00:00 | 00:00:00 | |
| 9A1FER-3 | 2026-09-02 12:30:53 | 46.02186 | 15.10436 | 69° | 42km/h | 17898m | 5.9m/s | 0°C | 0% | 0hPa | 0V | 00:00:00 | 00:00:00 | 00:00:00 | |
| 9A1FER-15 | 2026-09-02 12:30:47 | 46.02161 | 15.10318 | 64° | 42km/h | 17858m | 4.6m/s | 0°C | 0% | 0hPa | 0V | 00:00:00 | 00:00:00 | 00:00:00 | |
| 9A1FER-10 | 2026-09-02 12:30:38 | 46.02145 | 15.10215 | 88° | 44km/h | 17821m | 6.0m/s | 0°C | 0% | 0hPa | 0V | 00:00:00 | 00:00:00 | 00:00:00 | |
| 9A1FER-15 | 2026-09-02 12:30:31 | 46.02132 | 15.10094 | 81° | 44km/h | 17782m | 6.2m/s | 0°C | 0% | 0hPa | 0V | 00:00:00 | 00:00:00 | 00:00:00 | |
| HA6NAB-11 | 2026-09-02 12:30:25 | 46.02126 | 15.10015 | 91° | 47km/h | 17759m | 5.7m/s | 0°C | 0% | 0hPa | 0V | 00:00:00 | 00:00:00 | 00:00:00 | |
| 9A1FER-10 | 2026-09-02 12:30:23 | 46.02124 | 15.09978 | 81° | 42km/h | 17750m | 4.0m/s | 0°C | 0% | 0hPa | 0V | 00:00:00 | 00:00:00 | 00:00:00 | |
| 9A1FER-3 | 2026-09-02 12:30:22 | 46.02122 | 15.09961 | 78° | 42km/h | 17745m | 6.2m/s | 0°C | 0% | 0hPa | 0V | 00:00:00 | 00:00:00 | 00:00:00 | |
| HA6NAB-11 | 2026-09-02 12:30:19 | 46.02112 | 15.09914 | 77° | 44km/h | 17730m | 4.9m/s | 0°C | 0% | 0hPa | 0V | 00:00:00 | 00:00:00 | 00:00:00 | |
| 9A1FER-15 | 2026-09-02 12:30:15 | 46.02107 | 15.09857 | 85° | 37km/h | 17710m | 4.0m/s | 0°C | 0% | 0hPa | 0V | 00:00:00 | 00:00:00 | 00:00:00 | |
| HA6NAB-11 | 2026-09-02 12:30:14 | 46.02106 | 15.09841 | 86° | 40km/h | 17704m | 7.3m/s | 0°C | 0% | 0hPa | 0V | 00:00:00 | 00:00:00 | 00:00:00 | |
| 9A1FER-10 | 2026-09-02 12:30:08 | 46.02084 | 15.09759 | 66° | 33km/h | 17676m | 5.4m/s | 0°C | 0% | 0hPa | 0V | 00:00:00 | 00:00:00 | 00:00:00 | |
| 9A1FER-3 | 2026-09-02 12:30:07 | 46.02081 | 15.09748 | 73° | 31km/h | 17670m | 6.5m/s | 0°C | 0% | 0hPa | 0V | 00:00:00 | 00:00:00 | 00:00:00 | |
| HA6NAB-11 | 2026-09-02 12:30:02 | 46.02072 | 15.09690 | 62° | 35km/h | 17644m | 5.0m/s | 0°C | 0% | 0hPa | 0V | 00:00:00 | 00:00:00 | 00:00:00 | |
| 9A1FER-15 | 2026-09-02 12:30:00 | 46.02063 | 15.09666 | 65° | 31km/h | 17633m | 5.3m/s | 0°C | 0% | 0hPa | 0V | 00:00:00 | 00:00:00 | 00:00:00 | |
| HA6NAB-11 | 2026-09-02 12:29:56 | 46.02050 | 15.09623 | 85° | 33km/h | 17613m | 5.0m/s | 0°C | 0% | 0hPa | 0V | 00:00:00 | 00:00:00 | 00:00:00 | |
| 9A1FER-10 | 2026-09-02 12:29:53 | 46.02046 | 15.09588 | 72° | 27km/h | 17599m | 5.7m/s | 0°C | 0% | 0hPa | 0V | 00:00:00 | 00:00:00 | 00:00:00 | |
| 9A1FER-3 | 2026-09-02 12:29:52 | 46.02044 | 15.09579 | 67° | 27km/h | 17594m | 5.0m/s | 0°C | 0% | 0hPa | 0V | 00:00:00 | 00:00:00 | 00:00:00 | |
| 9A1FER-15 | 2026-09-02 12:29:45 | 46.02028 | 15.09506 | 81° | 26km/h | 17556m | 4.3m/s | 0°C | 0% | 0hPa | 0V | 00:00:00 | 00:00:00 | 00:00:00 | |
| 9A1FER-10 | 2026-09-02 12:29:38 | 46.02023 | 15.09444 | 85° | 29km/h | 17520m | 5.6m/s | 0°C | 0% | 0hPa | 0V | 00:00:00 | 00:00:00 | 00:00:00 | |
| OE3JTB-15 | 2026-09-02 12:29:35 | 46.02020 | 15.09398 | 82° | 35km/h | 17501m | 5.2m/s | 0°C | 0% | 0hPa | 0V | 00:00:00 | 00:00:00 | 00:00:00 | |
| 9A1FER-3 | 2026-09-02 12:29:33 | 46.02020 | 15.09379 | 96° | 33km/h | 17491m | 6.0m/s | 0°C | 0% | 0hPa | 0V | 00:00:00 | 00:00:00 | 00:00:00 | |
| 9A1FER-15 | 2026-09-02 12:29:30 | 46.02022 | 15.09360 | 104° | 35km/h | 17479m | 6.6m/s | 0°C | 0% | 0hPa | 0V | 00:00:00 | 00:00:00 | 00:00:00 | |
| 9A1FER-10 | 2026-09-02 12:29:23 | 46.02035 | 15.09280 | 105° | 35km/h | 17443m | 5.3m/s | 0°C | 0% | 0hPa | 0V | 00:00:00 | 00:00:00 | 00:00:00 | |
| 9A1FER-3 | 2026-09-02 12:29:16 | 46.02054 | 15.09191 | 98° | 37km/h | 17413m | 6.7m/s | 0°C | 0% | 0hPa | 0V | 00:00:00 | 00:00:00 | 00:00:00 | |
| 9A1FER-15 | 2026-09-02 12:29:15 | 46.02055 | 15.09178 | 95° | 35km/h | 17408m | 3.6m/s | 0°C | 0% | 0hPa | 0V | 00:00:00 | 00:00:00 | 00:00:00 | |
| 9A1FER-10 | 2026-09-02 12:29:08 | 46.02068 | 15.09094 | 108° | 38km/h | 17375m | 3.9m/s | 0°C | 0% | 0hPa | 0V | 00:00:00 | 00:00:00 | 00:00:00 | |
| OE3JTB-15 | 2026-09-02 12:29:05 | 46.02072 | 15.09040 | 91° | 42km/h | 17357m | 6.5m/s | 0°C | 0% | 0hPa | 0V | 00:00:00 | 00:00:00 | 00:00:00 | |
| 9A1FER-3 | 2026-09-02 12:29:01 | 46.02075 | 15.08998 | 92° | 42km/h | 17344m | 6.7m/s | 0°C | 0% | 0hPa | 0V | 00:00:00 | 00:00:00 | 00:00:00 | |
| 9A1FER-15 | 2026-09-02 12:28:58 | 46.02077 | 15.08956 | 95° | 44km/h | 17329m | 3.5m/s | 0°C | 0% | 0hPa | 0V | 00:00:00 | 00:00:00 | 00:00:00 | |
| 9A1FER-10 | 2026-09-02 12:28:53 | 46.02078 | 15.08884 | 95° | 44km/h | 17301m | 5.9m/s | 0°C | 0% | 0hPa | 0V | 00:00:00 | 00:00:00 | 00:00:00 | |
| 9A1FER-3 | 2026-09-02 12:28:46 | 46.02081 | 15.08773 | 81° | 44km/h | 17267m | 5.9m/s | 0°C | 0% | 0hPa | 0V | 00:00:00 | 00:00:00 | 00:00:00 | |
| 9A1FER-15 | 2026-09-02 12:28:43 | 46.02079 | 15.08725 | 94° | 44km/h | 17250m | 6.7m/s | 0°C | 0% | 0hPa | 0V | 00:00:00 | 00:00:00 | 00:00:00 | |
| 9A1FER-10 | 2026-09-02 12:28:38 | 46.02081 | 15.08644 | 82° | 47km/h | 17227m | 5.6m/s | 0°C | 0% | 0hPa | 0V | 00:00:00 | 00:00:00 | 00:00:00 | |
| OE3JTB-15 | 2026-09-02 12:28:35 | 46.02076 | 15.08574 | 92° | 44km/h | 17205m | 8.6m/s | 0°C | 0% | 0hPa | 0V | 00:00:00 | 00:00:00 | 00:00:00 | |
| 9A1FER-3 | 2026-09-02 12:28:29 | 46.02080 | 15.08497 | 88° | 47km/h | 17181m | 7.5m/s | 0°C | 0% | 0hPa | 0V | 00:00:00 | 00:00:00 | 00:00:00 | |
| 9A1FER-15 | 2026-09-02 12:28:28 | 46.02078 | 15.08481 | 80° | 49km/h | 17175m | 4.2m/s | 0°C | 0% | 0hPa | 0V | 00:00:00 | 00:00:00 | 00:00:00 | |
| 9A1FER-10 | 2026-09-02 12:28:23 | 46.02070 | 15.08390 | 86° | 46km/h | 17148m | 5.9m/s | 0°C | 0% | 0hPa | 0V | 00:00:00 | 00:00:00 | 00:00:00 | |
| 9A1FER-3 | 2026-09-02 12:28:14 | 46.02058 | 15.08236 | 89° | 44km/h | 17103m | 6.5m/s | 0°C | 0% | 0hPa | 0V | 00:00:00 | 00:00:00 | 00:00:00 | |
| 9A1FER-15 | 2026-09-02 12:28:13 | 46.02058 | 15.08220 | 95° | 42km/h | 17097m | 3.8m/s | 0°C | 0% | 0hPa | 0V | 00:00:00 | 00:00:00 | 00:00:00 | |
| 9A1FER-10 | 2026-09-02 12:28:08 | 46.02056 | 15.08145 | 81° | 44km/h | 17075m | 6.6m/s | 0°C | 0% | 0hPa | 0V | 00:00:00 | 00:00:00 | 00:00:00 | |
| 9A1FER-3 | 2026-09-02 12:27:59 | 46.02038 | 15.08008 | 84° | 40km/h | 17029m | 5.6m/s | 0°C | 0% | 0hPa | 0V | 00:00:00 | 00:00:00 | 00:00:00 | |
| 9A1FER-15 | 2026-09-02 12:27:58 | 46.02035 | 15.07993 | 73° | 42km/h | 17025m | 4.0m/s | 0°C | 0% | 0hPa | 0V | 00:00:00 | 00:00:00 | 00:00:00 | |
| 9A1FER-10 | 2026-09-02 12:27:53 | 46.02019 | 15.07913 | 78° | 40km/h | 17001m | 4.3m/s | 0°C | 0% | 0hPa | 0V | 00:00:00 | 00:00:00 | 00:00:00 | |
| 9A1FER-15 | 2026-09-02 12:27:44 | 46.02005 | 15.07768 | 76° | 40km/h | 16953m | 4.9m/s | 0°C | 0% | 0hPa | 0V | 00:00:00 | 00:00:00 | 00:00:00 | |
| 9A1FER-3 | 2026-09-02 12:27:42 | 46.02003 | 15.07753 | 87° | 42km/h | 16948m | 4.9m/s | 0°C | 0% | 0hPa | 0V | 00:00:00 | 00:00:00 | 00:00:00 | |
| 9A1FER-10 | 2026-09-02 12:27:38 | 46.02000 | 15.07699 | 81° | 42km/h | 16929m | 5.6m/s | 0°C | 0% | 0hPa | 0V | 00:00:00 | 00:00:00 | 00:00:00 | |
| 9A1FER-15 | 2026-09-02 12:27:28 | 46.01993 | 15.07548 | 97° | 40km/h | 16876m | 6.8m/s | 0°C | 0% | 0hPa | 0V | 00:00:00 | 00:00:00 | 00:00:00 | |
| 9A1FER-3 | 2026-09-02 12:27:26 | 46.01995 | 15.07515 | 91° | 40km/h | 16866m | 6.3m/s | 0°C | 0% | 0hPa | 0V | 00:00:00 | 00:00:00 | 00:00:00 | |
| 9A1FER-10 | 2026-09-02 12:27:23 | 46.01995 | 15.07472 | 91° | 42km/h | 16852m | 5.3m/s | 0°C | 0% | 0hPa | 0V | 00:00:00 | 00:00:00 | 00:00:00 | |
| 9A1FER-15 | 2026-09-02 12:27:12 | 46.01992 | 15.07315 | 80° | 42km/h | 16799m | 5.8m/s | 0°C | 0% | 0hPa | 0V | 00:00:00 | 00:00:00 | 00:00:00 | |
| 9A1FER-3 | 2026-09-02 12:27:11 | 46.01990 | 15.07298 | 80° | 42km/h | 16794m | 3.8m/s | 0°C | 0% | 0hPa | 0V | 00:00:00 | 00:00:00 | 00:00:00 | |
| 9A1FER-10 | 2026-09-02 12:27:08 | 46.01989 | 15.07248 | 98° | 42km/h | 16782m | 4.4m/s | 0°C | 0% | 0hPa | 0V | 00:00:00 | 00:00:00 | 00:00:00 | |
| 9A1FER-15 | 2026-09-02 12:26:57 | 46.01999 | 15.07084 | 94° | 46km/h | 16729m | 5.6m/s | 0°C | 0% | 0hPa | 0V | 00:00:00 | 00:00:00 | 00:00:00 | |
| OE3JTB-15 | 2026-09-02 12:26:56 | 46.02008 | 15.07026 | 107° | 49km/h | 16712m | 6.0m/s | 0°C | 0% | 0hPa | 0V | 00:00:00 | 00:00:00 | 00:00:00 | |
| 9A1FER-10 | 2026-09-02 12:26:53 | 46.02008 | 15.07026 | 107° | 46km/h | 16712m | 6.0m/s | 0°C | 0% | 0hPa | 0V | 00:00:00 | 00:00:00 | 00:00:00 | |
| 9A1FER-15 | 2026-09-02 12:26:41 | 46.02017 | 15.06828 | 98° | 47km/h | 16652m | 4.8m/s | 0°C | 0% | 0hPa | 0V | 00:00:00 | 00:00:00 | 00:00:00 | |
| 9A1FER-10 | 2026-09-02 12:26:38 | 46.02019 | 15.06780 | 93° | 51km/h | 16638m | 3.2m/s | 0°C | 0% | 0hPa | 0V | 00:00:00 | 00:00:00 | 00:00:00 | |
| OE3JTB-15 | 2026-09-02 12:26:27 | 46.02046 | 15.06546 | 100° | 53km/h | 16570m | 3.6m/s | 0°C | 0% | 0hPa | 0V | 00:00:00 | 00:00:00 | 00:00:00 | |
| 9A1FER-15 | 2026-09-02 12:26:25 | 46.02046 | 15.06546 | 100° | 49km/h | 16570m | 3.6m/s | 0°C | 0% | 0hPa | 0V | 00:00:00 | 00:00:00 | 00:00:00 | |
| 9A1FER-10 | 2026-09-02 12:26:23 | 46.02051 | 15.06509 | 105° | 49km/h | 16561m | 4.7m/s | 0°C | 0% | 0hPa | 0V | 00:00:00 | 00:00:00 | 00:00:00 | |
| 9A1FER-3 | 2026-09-02 12:26:19 | 46.02060 | 15.06445 | 99° | 55km/h | 16542m | 4.1m/s | 0°C | 0% | 0hPa | 0V | 00:00:00 | 00:00:00 | 00:00:00 | |
| 9A1FER-15 | 2026-09-02 12:26:10 | 46.02087 | 15.06267 | 103° | 55km/h | 16497m | 5.5m/s | 0°C | 0% | 0hPa | 0V | 00:00:00 | 00:00:00 | 00:00:00 | |
| 9A1FER-10 | 2026-09-02 12:26:08 | 46.02089 | 15.06249 | 100° | 55km/h | 16492m | 5.4m/s | 0°C | 0% | 0hPa | 0V | 00:00:00 | 00:00:00 | 00:00:00 | |
| 9A1FER-3 | 2026-09-02 12:25:56 | 46.02127 | 15.06015 | 110° | 53km/h | 16428m | 4.7m/s | 0°C | 0% | 0hPa | 0V | 00:00:00 | 00:00:00 | 00:00:00 | |
| 9A1FER-15 | 2026-09-02 12:25:54 | 46.02133 | 15.05977 | 93° | 53km/h | 16419m | 3.8m/s | 0°C | 0% | 0hPa | 0V | 00:00:00 | 00:00:00 | 00:00:00 | |
| 9A1FER-10 | 2026-09-02 12:25:53 | 46.02134 | 15.05959 | 96° | 55km/h | 16415m | 5.5m/s | 0°C | 0% | 0hPa | 0V | 00:00:00 | 00:00:00 | 00:00:00 | |
| 9A1FER-3 | 2026-09-02 12:25:39 | 46.02182 | 15.05693 | 105° | 62km/h | 16349m | 6.1m/s | 0°C | 0% | 0hPa | 0V | 00:00:00 | 00:00:00 | 00:00:00 | |
| 9A1FER-10 | 2026-09-02 12:25:37 | 46.02187 | 15.05653 | 99° | 64km/h | 16339m | 4.4m/s | 0°C | 0% | 0hPa | 0V | 00:00:00 | 00:00:00 | 00:00:00 | |
| OE3JTB-15 | 2026-09-02 12:25:29 | 46.02214 | 15.05399 | 98° | 64km/h | 16285m | 6.1m/s | 0°C | 0% | 0hPa | 0V | 00:00:00 | 00:00:00 | 00:00:00 | |
| 9A1FER-15 | 2026-09-02 12:25:24 | 46.02221 | 15.05355 | 103° | 68km/h | 16277m | 4.0m/s | 0°C | 0% | 0hPa | 0V | 00:00:00 | 00:00:00 | 00:00:00 | |
| 9A1FER-10 | 2026-09-02 12:25:22 | 46.02228 | 15.05307 | 100° | 68km/h | 16268m | 3.8m/s | 0°C | 0% | 0hPa | 0V | 00:00:00 | 00:00:00 | 00:00:00 | |
| 9A1FER-3 | 2026-09-02 12:25:19 | 46.02236 | 15.05239 | 101° | 66km/h | 16253m | 6.2m/s | 0°C | 0% | 0hPa | 0V | 00:00:00 | 00:00:00 | 00:00:00 | |
| 9A1FER-15 | 2026-09-02 12:25:09 | 46.02273 | 15.04992 | 102° | 58km/h | 16206m | 4.8m/s | 0°C | 0% | 0hPa | 0V | 00:00:00 | 00:00:00 | 00:00:00 | |
| 9A1FER-10 | 2026-09-02 12:25:07 | 46.02280 | 15.04949 | 105° | 57km/h | 16197m | 2.6m/s | 0°C | 0% | 0hPa | 0V | 00:00:00 | 00:00:00 | 00:00:00 | |
| 9A1FER-3 | 2026-09-02 12:25:05 | 46.02288 | 15.04890 | 96° | 57km/h | 16186m | 5.3m/s | 0°C | 0% | 0hPa | 0V | 00:00:00 | 00:00:00 | 00:00:00 | |
| OE3JTB-15 | 2026-09-02 12:24:59 | 46.02295 | 15.04718 | 100° | 57km/h | 16147m | 4.8m/s | 0°C | 0% | 0hPa | 0V | 00:00:00 | 00:00:00 | 00:00:00 | |
| 9A1FER-15 | 2026-09-02 12:24:54 | 46.02297 | 15.04680 | 92° | 55km/h | 16138m | 4.9m/s | 0°C | 0% | 0hPa | 0V | 00:00:00 | 00:00:00 | 00:00:00 | |
| 9A1FER-10 | 2026-09-02 12:24:52 | 46.02297 | 15.04636 | 93° | 55km/h | 16129m | 5.3m/s | 0°C | 0% | 0hPa | 0V | 00:00:00 | 00:00:00 | 00:00:00 | |
| 9A1FER-3 | 2026-09-02 12:24:47 | 46.02301 | 15.04538 | 97° | 55km/h | 16107m | 5.4m/s | 0°C | 0% | 0hPa | 0V | 00:00:00 | 00:00:00 | 00:00:00 | |
| 9A1FER-15 | 2026-09-02 12:24:39 | 46.02298 | 15.04378 | 84° | 55km/h | 16068m | 5.8m/s | 0°C | 0% | 0hPa | 0V | 00:00:00 | 00:00:00 | 00:00:00 | |
| 9A1FER-10 | 2026-09-02 12:24:37 | 46.02298 | 15.04337 | 95° | 55km/h | 16057m | 4.3m/s | 0°C | 0% | 0hPa | 0V | 00:00:00 | 00:00:00 | 00:00:00 | |
| 9A1FER-3 | 2026-09-02 12:24:32 | 46.02298 | 15.04239 | 85° | 55km/h | 16034m | 4.6m/s | 0°C | 0% | 0hPa | 0V | 00:00:00 | 00:00:00 | 00:00:00 | |
| OE3JTB-15 | 2026-09-02 12:24:30 | 46.02295 | 15.04144 | 96° | 57km/h | 16006m | 4.2m/s | 0°C | 0% | 0hPa | 0V | 00:00:00 | 00:00:00 | 00:00:00 | |
| 9A1FER-10 | 2026-09-02 12:24:23 | 46.02297 | 15.04038 | 87° | 55km/h | 15983m | 5.0m/s | 0°C | 0% | 0hPa | 0V | 00:00:00 | 00:00:00 | 00:00:00 | |
| 9A1FER-3 | 2026-09-02 12:24:17 | 46.02298 | 15.03943 | 93° | 57km/h | 15957m | 7.1m/s | 0°C | 0% | 0hPa | 0V | 00:00:00 | 00:00:00 | 00:00:00 | |
| 9A1FER-15 | 2026-09-02 12:24:07 | 46.02305 | 15.03743 | 96° | 62km/h | 15907m | 6.0m/s | 0°C | 0% | 0hPa | 0V | 00:00:00 | 00:00:00 | 00:00:00 | |
| 9A1FER-3 | 2026-09-02 12:24:02 | 46.02314 | 15.03631 | 100° | 64km/h | 15881m | 6.6m/s | 0°C | 0% | 0hPa | 0V | 00:00:00 | 00:00:00 | 00:00:00 | |
| OE3JTB-15 | 2026-09-02 12:24:01 | 46.02321 | 15.03547 | 97° | 64km/h | 15861m | 6.7m/s | 0°C | 0% | 0hPa | 0V | 00:00:00 | 00:00:00 | 00:00:00 | |
| 9A1FER-10 | 2026-09-02 12:23:52 | 46.02336 | 15.03408 | 98° | 64km/h | 15829m | 4.9m/s | 0°C | 0% | 0hPa | 0V | 00:00:00 | 00:00:00 | 00:00:00 | |
| 9A1FER-15 | 2026-09-02 12:23:50 | 46.02340 | 15.03360 | 98° | 64km/h | 15820m | 2.7m/s | 0°C | 0% | 0hPa | 0V | 00:00:00 | 00:00:00 | 00:00:00 | |
| 9A1FER-3 | 2026-09-02 12:23:46 | 46.02341 | 15.03272 | 95° | 68km/h | 15799m | 2.5m/s | 0°C | 0% | 0hPa | 0V | 00:00:00 | 00:00:00 | 00:00:00 | |
| 9A1FER-10 | 2026-09-02 12:23:37 | 46.02358 | 15.03063 | 95° | 66km/h | 15751m | 6.7m/s | 0°C | 0% | 0hPa | 0V | 00:00:00 | 00:00:00 | 00:00:00 | |
| 9A1FER-15 | 2026-09-02 12:23:35 | 46.02361 | 15.03015 | 95° | 66km/h | 15742m | 5.3m/s | 0°C | 0% | 0hPa | 0V | 00:00:00 | 00:00:00 | 00:00:00 | |
| OE3JTB-15 | 2026-09-02 12:23:32 | 46.02373 | 15.02913 | 98° | 62km/h | 15725m | 6.1m/s | 0°C | 0% | 0hPa | 0V | 00:00:00 | 00:00:00 | 00:00:00 | |
| 9A1FER-3 | 2026-09-02 12:23:31 | 46.02373 | 15.02913 | 98° | 62km/h | 15725m | 6.1m/s | 0°C | 0% | 0hPa | 0V | 00:00:00 | 00:00:00 | 00:00:00 | |
| 9A1FER-10 | 2026-09-02 12:23:22 | 46.02374 | 15.02708 | 99° | 62km/h | 15681m | 4.3m/s | 0°C | 0% | 0hPa | 0V | 00:00:00 | 00:00:00 | 00:00:00 | |
| 9A1FER-15 | 2026-09-02 12:23:20 | 46.02376 | 15.02661 | 91° | 60km/h | 15672m | 7.0m/s | 0°C | 0% | 0hPa | 0V | 00:00:00 | 00:00:00 | 00:00:00 | |
| 9A1FER-10 | 2026-09-02 12:23:07 | 46.02357 | 15.02376 | 83° | 58km/h | 15602m | 7.3m/s | 0°C | 0% | 0hPa | 0V | 00:00:00 | 00:00:00 | 00:00:00 | |
| 9A1FER-15 | 2026-09-02 12:23:06 | 46.02354 | 15.02331 | 87° | 58km/h | 15591m | 7.2m/s | 0°C | 0% | 0hPa | 0V | 00:00:00 | 00:00:00 | 00:00:00 | |
| OE3JTB-15 | 2026-09-02 12:23:03 | 46.02348 | 15.02267 | 84° | 60km/h | 15576m | 3.6m/s | 0°C | 0% | 0hPa | 0V | 00:00:00 | 00:00:00 | 00:00:00 | |
| 9A1FER-3 | 2026-09-02 12:23:01 | 46.02345 | 15.02245 | 80° | 58km/h | 15570m | 8.6m/s | 0°C | 0% | 0hPa | 0V | 00:00:00 | 00:00:00 | 00:00:00 | |
| 9A1FER-10 | 2026-09-02 12:22:52 | 46.02321 | 15.02062 | 73° | 58km/h | 15520m | 6.4m/s | 0°C | 0% | 0hPa | 0V | 00:00:00 | 00:00:00 | 00:00:00 | |
| 9A1FER-15 | 2026-09-02 12:22:50 | 46.02314 | 15.02023 | 78° | 58km/h | 15509m | 4.6m/s | 0°C | 0% | 0hPa | 0V | 00:00:00 | 00:00:00 | 00:00:00 | |
| 9A1FER-3 | 2026-09-02 12:22:46 | 46.02308 | 15.01935 | 88° | 57km/h | 15489m | 6.1m/s | 0°C | 0% | 0hPa | 0V | 00:00:00 | 00:00:00 | 00:00:00 | |
| 9A1FER-10 | 2026-09-02 12:22:37 | 46.02289 | 15.01750 | 82° | 58km/h | 15447m | 8.0m/s | 0°C | 0% | 0hPa | 0V | 00:00:00 | 00:00:00 | 00:00:00 | |
| 9A1FER-15 | 2026-09-02 12:22:35 | 46.02287 | 15.01707 | 89° | 60km/h | 15436m | 7.0m/s | 0°C | 0% | 0hPa | 0V | 00:00:00 | 00:00:00 | 00:00:00 | |
| 9A1FER-3 | 2026-09-02 12:22:31 | 46.02288 | 15.01624 | 90° | 58km/h | 15416m | 6.0m/s | 0°C | 0% | 0hPa | 0V | 00:00:00 | 00:00:00 | 00:00:00 | |
| 9A1FER-10 | 2026-09-02 12:22:22 | 46.02274 | 15.01428 | 82° | 55km/h | 15370m | 4.4m/s | 0°C | 0% | 0hPa | 0V | 00:00:00 | 00:00:00 | 00:00:00 | |
| 9A1FER-15 | 2026-09-02 12:22:20 | 46.02271 | 15.01386 | 84° | 55km/h | 15359m | 5.7m/s | 0°C | 0% | 0hPa | 0V | 00:00:00 | 00:00:00 | 00:00:00 | |
| 9A1FER-3 | 2026-09-02 12:22:16 | 46.02265 | 15.01302 | 91° | 55km/h | 15337m | 5.9m/s | 0°C | 0% | 0hPa | 0V | 00:00:00 | 00:00:00 | 00:00:00 | |
| 9A1FER-10 | 2026-09-02 12:22:07 | 46.02262 | 15.01129 | 88° | 55km/h | 15290m | 2.5m/s | 0°C | 0% | 0hPa | 0V | 00:00:00 | 00:00:00 | 00:00:00 | |
| 9A1FER-15 | 2026-09-02 12:22:05 | 46.02263 | 15.01089 | 99° | 55km/h | 15280m | 3.7m/s | 0°C | 0% | 0hPa | 0V | 00:00:00 | 00:00:00 | 00:00:00 | |
| 9A1FER-3 | 2026-09-02 12:22:02 | 46.02271 | 15.01011 | 96° | 55km/h | 15258m | 3.3m/s | 0°C | 0% | 0hPa | 0V | 00:00:00 | 00:00:00 | 00:00:00 | |
| OE3JTB-15 | 2026-09-02 12:21:57 | 46.02272 | 15.00911 | 103° | 75km/h | 15230m | 2.9m/s | 0°C | 0% | 0hPa | 0V | 00:00:00 | 00:00:00 | 00:00:00 | |
| 9A1FER-10 | 2026-09-02 12:21:52 | 46.02280 | 15.00827 | 99° | 60km/h | 15209m | 3.9m/s | 0°C | 0% | 0hPa | 0V | 00:00:00 | 00:00:00 | 00:00:00 | |
| 9A1FER-15 | 2026-09-02 12:21:50 | 46.02283 | 15.00786 | 93° | 62km/h | 15198m | 4.9m/s | 0°C | 0% | 0hPa | 0V | 00:00:00 | 00:00:00 | 00:00:00 | |
| 9A1FER-3 | 2026-09-02 12:21:45 | 46.02297 | 15.00688 | 100° | 64km/h | 15174m | 4.4m/s | 0°C | 0% | 0hPa | 0V | 00:00:00 | 00:00:00 | 00:00:00 | |
| 9A1FER-10 | 2026-09-02 12:21:37 | 46.02322 | 15.00508 | 112° | 69km/h | 15131m | 5.3m/s | 0°C | 0% | 0hPa | 0V | 00:00:00 | 00:00:00 | 00:00:00 | |
| 9A1FER-15 | 2026-09-02 12:21:34 | 46.02332 | 15.00436 | 103° | 71km/h | 15118m | 9.1m/s | 0°C | 0% | 0hPa | 0V | 00:00:00 | 00:00:00 | 00:00:00 | |
| 9A1FER-3 | 2026-09-02 12:21:30 | 46.02343 | 15.00346 | 101° | 77km/h | 15095m | 7.6m/s | 0°C | 0% | 0hPa | 0V | 00:00:00 | 00:00:00 | 00:00:00 | |
| 9A1FER-10 | 2026-09-02 12:21:22 | 46.02369 | 15.00136 | 100° | 80km/h | 15054m | 3.3m/s | 0°C | 0% | 0hPa | 0V | 00:00:00 | 00:00:00 | 00:00:00 | |
| 9A1FER-15 | 2026-09-02 12:21:19 | 46.02380 | 15.00051 | 101° | 82km/h | 15039m | 7.7m/s | 0°C | 0% | 0hPa | 0V | 00:00:00 | 00:00:00 | 00:00:00 | |
| 9A1FER-3 | 2026-09-02 12:21:15 | 46.02393 | 14.99935 | 94° | 84km/h | 15022m | 5.4m/s | 0°C | 0% | 0hPa | 0V | 00:00:00 | 00:00:00 | 00:00:00 | |
| 9A1FER-10 | 2026-09-02 12:21:08 | 46.02411 | 14.99699 | 96° | 88km/h | 14979m | 8.0m/s | 0°C | 0% | 0hPa | 0V | 00:00:00 | 00:00:00 | 00:00:00 | |
| 9A1FER-15 | 2026-09-02 12:21:04 | 46.02413 | 14.99604 | 94° | 88km/h | 14962m | 4.8m/s | 0°C | 0% | 0hPa | 0V | 00:00:00 | 00:00:00 | 00:00:00 | |
| 9A1FER-3 | 2026-09-02 12:21:00 | 46.02419 | 14.99476 | 99° | 88km/h | 14941m | 6.3m/s | 0°C | 0% | 0hPa | 0V | 00:00:00 | 00:00:00 | 00:00:00 | |
| 9A1FER-10 | 2026-09-02 12:20:52 | 46.02427 | 14.99225 | 93° | 89km/h | 14899m | 8.4m/s | 0°C | 0% | 0hPa | 0V | 00:00:00 | 00:00:00 | 00:00:00 | |
| 9A1FER-15 | 2026-09-02 12:20:49 | 46.02426 | 14.99129 | 88° | 89km/h | 14882m | 4.7m/s | 0°C | 0% | 0hPa | 0V | 00:00:00 | 00:00:00 | 00:00:00 | |
| 9A1FER-3 | 2026-09-02 12:20:45 | 46.02424 | 14.98999 | 91° | 91km/h | 14862m | 2.8m/s | 0°C | 0% | 0hPa | 0V | 00:00:00 | 00:00:00 | 00:00:00 | |
| 9A1FER-10 | 2026-09-02 12:20:37 | 46.02412 | 14.98740 | 85° | 91km/h | 14821m | 4.4m/s | 0°C | 0% | 0hPa | 0V | 00:00:00 | 00:00:00 | 00:00:00 | |
| 9A1FER-15 | 2026-09-02 12:20:34 | 46.02406 | 14.98641 | 85° | 89km/h | 14804m | 6.0m/s | 0°C | 0% | 0hPa | 0V | 00:00:00 | 00:00:00 | 00:00:00 | |
| 9A1FER-3 | 2026-09-02 12:20:29 | 46.02392 | 14.98476 | 84° | 86km/h | 14779m | 4.2m/s | 0°C | 0% | 0hPa | 0V | 00:00:00 | 00:00:00 | 00:00:00 | |
| 9A1FER-10 | 2026-09-02 12:20:22 | 46.02375 | 14.98254 | 82° | 84km/h | 14746m | 3.6m/s | 0°C | 0% | 0hPa | 0V | 00:00:00 | 00:00:00 | 00:00:00 | |
| 9A1FER-15 | 2026-09-02 12:20:19 | 46.02363 | 14.98165 | 80° | 84km/h | 14729m | 9.2m/s | 0°C | 0% | 0hPa | 0V | 00:00:00 | 00:00:00 | 00:00:00 | |
| 9A1FER-3 | 2026-09-02 12:20:14 | 46.02352 | 14.98017 | 82° | 86km/h | 14700m | 8.3m/s | 0°C | 0% | 0hPa | 0V | 00:00:00 | 00:00:00 | 00:00:00 | |
| 9A1FER-10 | 2026-09-02 12:20:07 | 46.02322 | 14.97803 | 81° | 82km/h | 14661m | 4.3m/s | 0°C | 0% | 0hPa | 0V | 00:00:00 | 00:00:00 | 00:00:00 | |
| 9A1FER-15 | 2026-09-02 12:20:04 | 46.02308 | 14.97719 | 76° | 82km/h | 14644m | 4.0m/s | 0°C | 0% | 0hPa | 0V | 00:00:00 | 00:00:00 | 00:00:00 | |
| OE3JTB-15 | 2026-09-02 12:20:03 | 46.02297 | 14.97655 | 78° | 71km/h | 14635m | 3.0m/s | 0°C | 0% | 0hPa | 0V | 00:00:00 | 00:00:00 | 00:00:00 | |
| 9A1FER-3 | 2026-09-02 12:19:59 | 46.02286 | 14.97562 | 82° | 80km/h | 14622m | 7.1m/s | 0°C | 0% | 0hPa | 0V | 00:00:00 | 00:00:00 | 00:00:00 | |
| 9A1FER-10 | 2026-09-02 12:19:52 | 46.02252 | 14.97368 | 78° | 78km/h | 14586m | 5.8m/s | 0°C | 0% | 0hPa | 0V | 00:00:00 | 00:00:00 | 00:00:00 | |
| 9A1FER-15 | 2026-09-02 12:19:49 | 46.02241 | 14.97286 | 75° | 78km/h | 14572m | 3.2m/s | 0°C | 0% | 0hPa | 0V | 00:00:00 | 00:00:00 | 00:00:00 | |
| 9A1FER-3 | 2026-09-02 12:19:44 | 46.02205 | 14.97143 | 71° | 73km/h | 14549m | 4.3m/s | 0°C | 0% | 0hPa | 0V | 00:00:00 | 00:00:00 | 00:00:00 | |
| 9A1FER-10 | 2026-09-02 12:19:37 | 46.02179 | 14.96958 | 69° | 69km/h | 14515m | 5.3m/s | 0°C | 0% | 0hPa | 0V | 00:00:00 | 00:00:00 | 00:00:00 | |
| 9A1FER-15 | 2026-09-02 12:19:34 | 46.02156 | 14.96880 | 71° | 68km/h | 14500m | 5.8m/s | 0°C | 0% | 0hPa | 0V | 00:00:00 | 00:00:00 | 00:00:00 | |
| 9A1FER-3 | 2026-09-02 12:19:29 | 46.02141 | 14.96758 | 81° | 66km/h | 14473m | 5.8m/s | 0°C | 0% | 0hPa | 0V | 00:00:00 | 00:00:00 | 00:00:00 | |
| 9A1FER-10 | 2026-09-02 12:19:22 | 46.02119 | 14.96594 | 82° | 64km/h | 14438m | 1.7m/s | 0°C | 0% | 0hPa | 0V | 00:00:00 | 00:00:00 | 00:00:00 | |
| 9A1FER-15 | 2026-09-02 12:19:19 | 46.02109 | 14.96523 | 81° | 64km/h | 14423m | 6.6m/s | 0°C | 0% | 0hPa | 0V | 00:00:00 | 00:00:00 | 00:00:00 | |
| 9A1FER-3 | 2026-09-02 12:19:14 | 46.02098 | 14.96407 | 81° | 62km/h | 14398m | 7.1m/s | 0°C | 0% | 0hPa | 0V | 00:00:00 | 00:00:00 | 00:00:00 | |
| 9A1FER-10 | 2026-09-02 12:19:07 | 46.02083 | 14.96252 | 89° | 64km/h | 14362m | 2.7m/s | 0°C | 0% | 0hPa | 0V | 00:00:00 | 00:00:00 | 00:00:00 | |
| 9A1FER-15 | 2026-09-02 12:19:04 | 46.02081 | 14.96179 | 86° | 62km/h | 14347m | 3.7m/s | 0°C | 0% | 0hPa | 0V | 00:00:00 | 00:00:00 | 00:00:00 | |
| 9A1FER-3 | 2026-09-02 12:18:58 | 46.02069 | 14.96022 | 91° | 64km/h | 14315m | 5.0m/s | 0°C | 0% | 0hPa | 0V | 00:00:00 | 00:00:00 | 00:00:00 | |
| 9A1FER-10 | 2026-09-02 12:18:52 | 46.02068 | 14.95910 | 87° | 68km/h | 14286m | 5.6m/s | 0°C | 0% | 0hPa | 0V | 00:00:00 | 00:00:00 | 00:00:00 | |
| 9A1FER-15 | 2026-09-02 12:18:49 | 46.02069 | 14.95841 | 100° | 69km/h | 14269m | 5.8m/s | 0°C | 0% | 0hPa | 0V | 00:00:00 | 00:00:00 | 00:00:00 | |
| 9A1FER-3 | 2026-09-02 12:18:42 | 46.02081 | 14.95675 | 98° | 73km/h | 14234m | 4.2m/s | 0°C | 0% | 0hPa | 0V | 00:00:00 | 00:00:00 | 00:00:00 | |
| 9A1FER-10 | 2026-09-02 12:18:37 | 46.02095 | 14.95541 | 103° | 73km/h | 14206m | 7.7m/s | 0°C | 0% | 0hPa | 0V | 00:00:00 | 00:00:00 | 00:00:00 | |
| 9A1FER-15 | 2026-09-02 12:18:34 | 46.02104 | 14.95468 | 101° | 77km/h | 14188m | 6.8m/s | 0°C | 0% | 0hPa | 0V | 00:00:00 | 00:00:00 | 00:00:00 | |
| 9A1FER-3 | 2026-09-02 12:18:28 | 46.02119 | 14.95275 | 92° | 77km/h | 14152m | 4.6m/s | 0°C | 0% | 0hPa | 0V | 00:00:00 | 00:00:00 | 00:00:00 | |
| 9A1FER-10 | 2026-09-02 12:18:22 | 46.02125 | 14.95140 | 100° | 78km/h | 14127m | 4.1m/s | 0°C | 0% | 0hPa | 0V | 00:00:00 | 00:00:00 | 00:00:00 | |
| 9A1FER-15 | 2026-09-02 12:18:19 | 46.02137 | 14.95048 | 99° | 75km/h | 14112m | 3.9m/s | 0°C | 0% | 0hPa | 0V | 00:00:00 | 00:00:00 | 00:00:00 | |
| 9A1FER-3 | 2026-09-02 12:18:13 | 46.02142 | 14.94858 | 95° | 73km/h | 14077m | 3.9m/s | 0°C | 0% | 0hPa | 0V | 00:00:00 | 00:00:00 | 00:00:00 | |
| 9A1FER-10 | 2026-09-02 12:18:07 | 46.02148 | 14.94722 | 90° | 73km/h | 14052m | 6.8m/s | 0°C | 0% | 0hPa | 0V | 00:00:00 | 00:00:00 | 00:00:00 | |
| 9A1FER-15 | 2026-09-02 12:18:04 | 46.02150 | 14.94646 | 93° | 75km/h | 14036m | 5.2m/s | 0°C | 0% | 0hPa | 0V | 00:00:00 | 00:00:00 | 00:00:00 | |
| 9A1FER-3 | 2026-09-02 12:17:57 | 46.02154 | 14.94459 | 82° | 73km/h | 14000m | 4.9m/s | 0°C | 0% | 0hPa | 0V | 00:00:00 | 00:00:00 | 00:00:00 | |
| 9A1FER-10 | 2026-09-02 12:17:52 | 46.02151 | 14.94324 | 94° | 73km/h | 13976m | 6.0m/s | 0°C | 0% | 0hPa | 0V | 00:00:00 | 00:00:00 | 00:00:00 | |
| 9A1FER-15 | 2026-09-02 12:17:49 | 46.02151 | 14.94240 | 88° | 71km/h | 13960m | 4.0m/s | 0°C | 0% | 0hPa | 0V | 00:00:00 | 00:00:00 | 00:00:00 | |
| 9A1FER-3 | 2026-09-02 12:17:42 | 46.02138 | 14.94060 | 88° | 71km/h | 13921m | 4.6m/s | 0°C | 0% | 0hPa | 0V | 00:00:00 | 00:00:00 | 00:00:00 | |
| 9A1FER-10 | 2026-09-02 12:17:37 | 46.02140 | 14.93931 | 94° | 73km/h | 13898m | 8.2m/s | 0°C | 0% | 0hPa | 0V | 00:00:00 | 00:00:00 | 00:00:00 | |
| 9A1FER-15 | 2026-09-02 12:17:34 | 46.02137 | 14.93854 | 88° | 73km/h | 13881m | 4.1m/s | 0°C | 0% | 0hPa | 0V | 00:00:00 | 00:00:00 | 00:00:00 | |
| 9A1FER-3 | 2026-09-02 12:17:27 | 46.02137 | 14.93670 | 90° | 71km/h | 13844m | 4.4m/s | 0°C | 0% | 0hPa | 0V | 00:00:00 | 00:00:00 | 00:00:00 | |
| 9A1FER-10 | 2026-09-02 12:17:22 | 46.02139 | 14.93535 | 95° | 69km/h | 13817m | 7.8m/s | 0°C | 0% | 0hPa | 0V | 00:00:00 | 00:00:00 | 00:00:00 | |
| 9A1FER-15 | 2026-09-02 12:17:19 | 46.02140 | 14.93459 | 92° | 69km/h | 13802m | 5.1m/s | 0°C | 0% | 0hPa | 0V | 00:00:00 | 00:00:00 | 00:00:00 | |
| 9A1FER-3 | 2026-09-02 12:17:12 | 46.02139 | 14.93280 | 88° | 69km/h | 13769m | 6.6m/s | 0°C | 0% | 0hPa | 0V | 00:00:00 | 00:00:00 | 00:00:00 | |
| 9A1FER-10 | 2026-09-02 12:17:07 | 46.02135 | 14.93156 | 89° | 69km/h | 13743m | 7.0m/s | 0°C | 0% | 0hPa | 0V | 00:00:00 | 00:00:00 | 00:00:00 | |
| 9A1FER-15 | 2026-09-02 12:17:04 | 46.02137 | 14.93081 | 93° | 69km/h | 13728m | 4.7m/s | 0°C | 0% | 0hPa | 0V | 00:00:00 | 00:00:00 | 00:00:00 | |
| 9A1FER-3 | 2026-09-02 12:16:58 | 46.02131 | 14.92903 | 85° | 68km/h | 13688m | 4.0m/s | 0°C | 0% | 0hPa | 0V | 00:00:00 | 00:00:00 | 00:00:00 | |
| 9A1FER-10 | 2026-09-02 12:16:52 | 46.02122 | 14.92752 | 85° | 66km/h | 13656m | 4.5m/s | 0°C | 0% | 0hPa | 0V | 00:00:00 | 00:00:00 | 00:00:00 | |
| 9A1FER-15 | 2026-09-02 12:16:48 | 46.02115 | 14.92678 | 84° | 66km/h | 13640m | 6.4m/s | 0°C | 0% | 0hPa | 0V | 00:00:00 | 00:00:00 | 00:00:00 | |
| 9A1FER-3 | 2026-09-02 12:16:42 | 46.02111 | 14.92540 | 90° | 64km/h | 13603m | 5.6m/s | 0°C | 0% | 0hPa | 0V | 00:00:00 | 00:00:00 | 00:00:00 | |
| 9A1FER-10 | 2026-09-02 12:16:35 | 46.02105 | 14.92368 | 91° | 58km/h | 13568m | 5.8m/s | 0°C | 0% | 0hPa | 0V | 00:00:00 | 00:00:00 | 00:00:00 | |
| 9A1FER-15 | 2026-09-02 12:16:33 | 46.02105 | 14.92327 | 89° | 60km/h | 13558m | 6.4m/s | 0°C | 0% | 0hPa | 0V | 00:00:00 | 00:00:00 | 00:00:00 | |
| 9A1FER-3 | 2026-09-02 12:16:27 | 46.02106 | 14.92186 | 96° | 57km/h | 13526m | 5.6m/s | 0°C | 0% | 0hPa | 0V | 00:00:00 | 00:00:00 | 00:00:00 | |
| 9A1FER-10 | 2026-09-02 12:16:20 | 46.02101 | 14.92046 | 93° | 60km/h | 13492m | 3.6m/s | 0°C | 0% | 0hPa | 0V | 00:00:00 | 00:00:00 | 00:00:00 | |
| 9A1FER-15 | 2026-09-02 12:16:18 | 46.02102 | 14.91996 | 89° | 58km/h | 13480m | 4.9m/s | 0°C | 0% | 0hPa | 0V | 00:00:00 | 00:00:00 | 00:00:00 | |
| 9A1FER-3 | 2026-09-02 12:16:12 | 46.02097 | 14.91882 | 87° | 62km/h | 13449m | 5.8m/s | 0°C | 0% | 0hPa | 0V | 00:00:00 | 00:00:00 | 00:00:00 | |
| 9A1FER-10 | 2026-09-02 12:16:05 | 46.02096 | 14.91721 | 91° | 62km/h | 13415m | 1.6m/s | 0°C | 0% | 0hPa | 0V | 00:00:00 | 00:00:00 | 00:00:00 | |
| 9A1FER-15 | 2026-09-02 12:16:03 | 46.02099 | 14.91685 | 110° | 64km/h | 13404m | 5.0m/s | 0°C | 0% | 0hPa | 0V | 00:00:00 | 00:00:00 | 00:00:00 | |
| 9A1FER-3 | 2026-09-02 12:15:57 | 46.02112 | 14.91545 | 90° | 64km/h | 13372m | 5.4m/s | 0°C | 0% | 0hPa | 0V | 00:00:00 | 00:00:00 | 00:00:00 | |
| 9A1FER-10 | 2026-09-02 12:15:50 | 46.02140 | 14.91394 | 102° | 66km/h | 13334m | 5.3m/s | 0°C | 0% | 0hPa | 0V | 00:00:00 | 00:00:00 | 00:00:00 | |
| 9A1FER-15 | 2026-09-02 12:15:48 | 46.02146 | 14.91343 | 96° | 64km/h | 13324m | 2.2m/s | 0°C | 0% | 0hPa | 0V | 00:00:00 | 00:00:00 | 00:00:00 | |
| 9A1FER-3 | 2026-09-02 12:15:42 | 46.02158 | 14.91201 | 101° | 66km/h | 13294m | 3.2m/s | 0°C | 0% | 0hPa | 0V | 00:00:00 | 00:00:00 | 00:00:00 | |
| 9A1FER-10 | 2026-09-02 12:15:35 | 46.02184 | 14.91044 | 99° | 69km/h | 13259m | 4.2m/s | 0°C | 0% | 0hPa | 0V | 00:00:00 | 00:00:00 | 00:00:00 | |
| 9A1FER-15 | 2026-09-02 12:15:33 | 46.02189 | 14.90995 | 102° | 69km/h | 13251m | 4.7m/s | 0°C | 0% | 0hPa | 0V | 00:00:00 | 00:00:00 | 00:00:00 | |
| 9A1FER-3 | 2026-09-02 12:15:27 | 46.02216 | 14.90856 | 105° | 75km/h | 13223m | 2.7m/s | 0°C | 0% | 0hPa | 0V | 00:00:00 | 00:00:00 | 00:00:00 | |
| 9A1FER-10 | 2026-09-02 12:15:20 | 46.02239 | 14.90678 | 110° | 80km/h | 13187m | 7.1m/s | 0°C | 0% | 0hPa | 0V | 00:00:00 | 00:00:00 | 00:00:00 | |
| 9A1FER-15 | 2026-09-02 12:15:19 | 46.02253 | 14.90626 | 112° | 82km/h | 13176m | 5.7m/s | 0°C | 0% | 0hPa | 0V | 00:00:00 | 00:00:00 | 00:00:00 | |
| 9A1FER-3 | 2026-09-02 12:15:12 | 46.02286 | 14.90462 | 104° | 88km/h | 13145m | 3.5m/s | 0°C | 0% | 0hPa | 0V | 00:00:00 | 00:00:00 | 00:00:00 | |
| 9A1FER-10 | 2026-09-02 12:15:05 | 46.02330 | 14.90264 | 111° | 93km/h | 13105m | 6.0m/s | 0°C | 0% | 0hPa | 0V | 00:00:00 | 00:00:00 | 00:00:00 | |
| 9A1FER-15 | 2026-09-02 12:15:03 | 46.02347 | 14.90201 | 112° | 93km/h | 13092m | 6.0m/s | 0°C | 0% | 0hPa | 0V | 00:00:00 | 00:00:00 | 00:00:00 | |
| 9A1FER-3 | 2026-09-02 12:14:57 | 46.02389 | 14.90007 | 106° | 93km/h | 13058m | 6.9m/s | 0°C | 0% | 0hPa | 0V | 00:00:00 | 00:00:00 | 00:00:00 | |
| 9A1FER-10 | 2026-09-02 12:14:50 | 46.02437 | 14.89783 | 105° | 93km/h | 13020m | 6.0m/s | 0°C | 0% | 0hPa | 0V | 00:00:00 | 00:00:00 | 00:00:00 | |
| 9A1FER-15 | 2026-09-02 12:14:48 | 46.02449 | 14.89714 | 105° | 93km/h | 13009m | 6.0m/s | 0°C | 0% | 0hPa | 0V | 00:00:00 | 00:00:00 | 00:00:00 | |
| 9A1FER-3 | 2026-09-02 12:14:42 | 46.02485 | 14.89517 | 104° | 91km/h | 12974m | 7.4m/s | 0°C | 0% | 0hPa | 0V | 00:00:00 | 00:00:00 | 00:00:00 | |
| 9A1FER-10 | 2026-09-02 12:14:35 | 46.02522 | 14.89289 | 104° | 91km/h | 12938m | 5.1m/s | 0°C | 0% | 0hPa | 0V | 00:00:00 | 00:00:00 | 00:00:00 | |
| 9A1FER-15 | 2026-09-02 12:14:33 | 46.02531 | 14.89223 | 101° | 89km/h | 12926m | 4.0m/s | 0°C | 0% | 0hPa | 0V | 00:00:00 | 00:00:00 | 00:00:00 | |
| 9A1FER-3 | 2026-09-02 12:14:27 | 46.02567 | 14.89028 | 104° | 88km/h | 12897m | 3.9m/s | 0°C | 0% | 0hPa | 0V | 00:00:00 | 00:00:00 | 00:00:00 | |
| 9A1FER-10 | 2026-09-02 12:14:20 | 46.02571 | 14.88804 | 97° | 88km/h | 12860m | 4.5m/s | 0°C | 0% | 0hPa | 0V | 00:00:00 | 00:00:00 | 00:00:00 | |
| 9A1FER-15 | 2026-09-02 12:14:18 | 46.02577 | 14.88739 | 98° | 88km/h | 12850m | 4.6m/s | 0°C | 0% | 0hPa | 0V | 00:00:00 | 00:00:00 | 00:00:00 | |
| 9A1FER-3 | 2026-09-02 12:14:12 | 46.02598 | 14.88555 | 99° | 86km/h | 12817m | 4.2m/s | 0°C | 0% | 0hPa | 0V | 00:00:00 | 00:00:00 | 00:00:00 | |
| 9A1FER-10 | 2026-09-02 12:14:05 | 46.02615 | 14.88332 | 94° | 82km/h | 12783m | 4.9m/s | 0°C | 0% | 0hPa | 0V | 00:00:00 | 00:00:00 | 00:00:00 | |
| 9A1FER-15 | 2026-09-02 12:14:03 | 46.02617 | 14.88272 | 94° | 82km/h | 12772m | 9.1m/s | 0°C | 0% | 0hPa | 0V | 00:00:00 | 00:00:00 | 00:00:00 | |
| 9A1FER-3 | 2026-09-02 12:13:57 | 46.02629 | 14.88091 | 98° | 80km/h | 12739m | 4.2m/s | 0°C | 0% | 0hPa | 0V | 00:00:00 | 00:00:00 | 00:00:00 | |
| 9A1FER-10 | 2026-09-02 12:13:50 | 46.02638 | 14.87885 | 96° | 77km/h | 12701m | 3.5m/s | 0°C | 0% | 0hPa | 0V | 00:00:00 | 00:00:00 | 00:00:00 | |
| 9A1FER-15 | 2026-09-02 12:13:48 | 46.02641 | 14.87829 | 96° | 77km/h | 12690m | 4.1m/s | 0°C | 0% | 0hPa | 0V | 00:00:00 | 00:00:00 | 00:00:00 | |
| 9A1FER-3 | 2026-09-02 12:13:42 | 46.02653 | 14.87659 | 91° | 75km/h | 12657m | 3.4m/s | 0°C | 0% | 0hPa | 0V | 00:00:00 | 00:00:00 | 00:00:00 | |
| 9A1FER-10 | 2026-09-02 12:13:34 | 46.02665 | 14.87440 | 98° | 73km/h | 12617m | 5.5m/s | 0°C | 0% | 0hPa | 0V | 00:00:00 | 00:00:00 | 00:00:00 | |
| 9A1FER-15 | 2026-09-02 12:13:33 | 46.02668 | 14.87414 | 101° | 71km/h | 12612m | 4.9m/s | 0°C | 0% | 0hPa | 0V | 00:00:00 | 00:00:00 | 00:00:00 | |
| 9A1FER-3 | 2026-09-02 12:13:27 | 46.02674 | 14.87260 | 92° | 73km/h | 12581m | 3.3m/s | 0°C | 0% | 0hPa | 0V | 00:00:00 | 00:00:00 | 00:00:00 | |
| 9A1FER-10 | 2026-09-02 12:13:19 | 46.02689 | 14.87058 | 90° | 75km/h | 12543m | 4.0m/s | 0°C | 0% | 0hPa | 0V | 00:00:00 | 00:00:00 | 00:00:00 | |
| 9A1FER-15 | 2026-09-02 12:13:18 | 46.02688 | 14.87032 | 90° | 75km/h | 12538m | 5.3m/s | 0°C | 0% | 0hPa | 0V | 00:00:00 | 00:00:00 | 00:00:00 | |
| 9A1FER-3 | 2026-09-02 12:13:12 | 46.02691 | 14.86864 | 89° | 73km/h | 12504m | 6.0m/s | 0°C | 0% | 0hPa | 0V | 00:00:00 | 00:00:00 | 00:00:00 | |
| 9A1FER-10 | 2026-09-02 12:13:04 | 46.02693 | 14.86649 | 88° | 73km/h | 12466m | 5.0m/s | 0°C | 0% | 0hPa | 0V | 00:00:00 | 00:00:00 | 00:00:00 | |
| 9A1FER-15 | 2026-09-02 12:13:03 | 46.02692 | 14.86623 | 88° | 73km/h | 12461m | 4.6m/s | 0°C | 0% | 0hPa | 0V | 00:00:00 | 00:00:00 | 00:00:00 | |
| OE3JTB-15 | 2026-09-02 12:13:01 | 46.02689 | 14.86550 | 87° | 73km/h | 12444m | 5.5m/s | 0°C | 0% | 0hPa | 0V | 00:00:00 | 00:00:00 | 00:00:00 | |
| 9A1FER-3 | 2026-09-02 12:12:57 | 46.02691 | 14.86467 | 96° | 73km/h | 12429m | 3.5m/s | 0°C | 0% | 0hPa | 0V | 00:00:00 | 00:00:00 | 00:00:00 | |
| 9A1FER-10 | 2026-09-02 12:12:49 | 46.02688 | 14.86254 | 88° | 73km/h | 12393m | 9.1m/s | 0°C | 0% | 0hPa | 0V | 00:00:00 | 00:00:00 | 00:00:00 | |
| 9A1FER-15 | 2026-09-02 12:12:48 | 46.02688 | 14.86228 | 90° | 73km/h | 12388m | 3.8m/s | 0°C | 0% | 0hPa | 0V | 00:00:00 | 00:00:00 | 00:00:00 | |
| 9A1FER-3 | 2026-09-02 12:12:42 | 46.02697 | 14.86071 | 93° | 71km/h | 12357m | 5.1m/s | 0°C | 0% | 0hPa | 0V | 00:00:00 | 00:00:00 | 00:00:00 | |
| 9A1FER-10 | 2026-09-02 12:12:34 | 46.02702 | 14.85860 | 96° | 75km/h | 12316m | 8.2m/s | 0°C | 0% | 0hPa | 0V | 00:00:00 | 00:00:00 | 00:00:00 | |
| 9A1FER-3 | 2026-09-02 12:12:27 | 46.02703 | 14.85680 | 90° | 77km/h | 12281m | 5.1m/s | 0°C | 0% | 0hPa | 0V | 00:00:00 | 00:00:00 | 00:00:00 | |
| OE3JTB-15 | 2026-09-02 12:12:26 | 46.02706 | 14.85566 | 96° | 73km/h | 12259m | 3.4m/s | 0°C | 0% | 0hPa | 0V | 00:00:00 | 00:00:00 | 00:00:00 | |
| 9A1FER-10 | 2026-09-02 12:12:19 | 46.02708 | 14.85455 | 88° | 73km/h | 12240m | 7.1m/s | 0°C | 0% | 0hPa | 0V | 00:00:00 | 00:00:00 | 00:00:00 | |
| 9A1FER-15 | 2026-09-02 12:12:17 | 46.02707 | 14.85403 | 89° | 73km/h | 12229m | 6.7m/s | 0°C | 0% | 0hPa | 0V | 00:00:00 | 00:00:00 | 00:00:00 | |
| 9A1FER-3 | 2026-09-02 12:12:12 | 46.02709 | 14.85267 | 93° | 73km/h | 12206m | 6.7m/s | 0°C | 0% | 0hPa | 0V | 00:00:00 | 00:00:00 | 00:00:00 | |
| 9A1FER-10 | 2026-09-02 12:12:04 | 46.02710 | 14.85060 | 91° | 73km/h | 12164m | 4.0m/s | 0°C | 0% | 0hPa | 0V | 00:00:00 | 00:00:00 | 00:00:00 | |
| 9A1FER-15 | 2026-09-02 12:12:01 | 46.02711 | 14.84981 | 87° | 73km/h | 12150m | 3.9m/s | 0°C | 0% | 0hPa | 0V | 00:00:00 | 00:00:00 | 00:00:00 | |
| OE3JTB-15 | 2026-09-02 12:11:57 | 46.02705 | 14.84842 | 85° | 75km/h | 12123m | 5.4m/s | 0°C | 0% | 0hPa | 0V | 00:00:00 | 00:00:00 | 00:00:00 | |
| 9A1FER-10 | 2026-09-02 12:11:49 | 46.02701 | 14.84658 | 89° | 75km/h | 12092m | 5.7m/s | 0°C | 0% | 0hPa | 0V | 00:00:00 | 00:00:00 | 00:00:00 | |
| 9A1FER-15 | 2026-09-02 12:11:46 | 46.02700 | 14.84578 | 87° | 77km/h | 12078m | 4.0m/s | 0°C | 0% | 0hPa | 0V | 00:00:00 | 00:00:00 | 00:00:00 | |
| 9A1FER-3 | 2026-09-02 12:11:42 | 46.02697 | 14.84467 | 94° | 77km/h | 12059m | 8.7m/s | 0°C | 0% | 0hPa | 0V | 00:00:00 | 00:00:00 | 00:00:00 | |
| 9A1FER-10 | 2026-09-02 12:11:34 | 46.02705 | 14.84251 | 93° | 80km/h | 12015m | 4.1m/s | 0°C | 0% | 0hPa | 0V | 00:00:00 | 00:00:00 | 00:00:00 | |
| 9A1FER-15 | 2026-09-02 12:11:31 | 46.02712 | 14.84165 | 97° | 78km/h | 12001m | 4.7m/s | 0°C | 0% | 0hPa | 0V | 00:00:00 | 00:00:00 | 00:00:00 | |
| 9A1FER-3 | 2026-09-02 12:11:27 | 46.02721 | 14.84049 | 95° | 80km/h | 11982m | 5.0m/s | 0°C | 0% | 0hPa | 0V | 00:00:00 | 00:00:00 | 00:00:00 | |
| 9A1FER-10 | 2026-09-02 12:11:19 | 46.02743 | 14.83819 | 102° | 78km/h | 11942m | 5.1m/s | 0°C | 0% | 0hPa | 0V | 00:00:00 | 00:00:00 | 00:00:00 | |
| 9A1FER-15 | 2026-09-02 12:11:16 | 46.02749 | 14.83739 | 89° | 80km/h | 11929m | 2.1m/s | 0°C | 0% | 0hPa | 0V | 00:00:00 | 00:00:00 | 00:00:00 | |
| 9A1FER-3 | 2026-09-02 12:11:12 | 46.02749 | 14.83617 | 94° | 78km/h | 11908m | 7.5m/s | 0°C | 0% | 0hPa | 0V | 00:00:00 | 00:00:00 | 00:00:00 | |
| 9A1FER-10 | 2026-09-02 12:11:04 | 46.02753 | 14.83390 | 89° | 75km/h | 11868m | 4.3m/s | 0°C | 0% | 0hPa | 0V | 00:00:00 | 00:00:00 | 00:00:00 | |
| 9A1FER-15 | 2026-09-02 12:11:01 | 46.02757 | 14.83305 | 97° | 75km/h | 11855m | 4.2m/s | 0°C | 0% | 0hPa | 0V | 00:00:00 | 00:00:00 | 00:00:00 | |
| 9A1FER-3 | 2026-09-02 12:10:57 | 46.02763 | 14.83199 | 90° | 75km/h | 11836m | 5.8m/s | 0°C | 0% | 0hPa | 0V | 00:00:00 | 00:00:00 | 00:00:00 | |
| 9A1FER-10 | 2026-09-02 12:10:49 | 46.02766 | 14.82985 | 95° | 73km/h | 11801m | 4.7m/s | 0°C | 0% | 0hPa | 0V | 00:00:00 | 00:00:00 | 00:00:00 | |
| 9A1FER-3 | 2026-09-02 12:10:42 | 46.02774 | 14.82796 | 95° | 71km/h | 11766m | 8.1m/s | 0°C | 0% | 0hPa | 0V | 00:00:00 | 00:00:00 | 00:00:00 | |
| 9A1FER-10 | 2026-09-02 12:10:34 | 46.02788 | 14.82591 | 96° | 71km/h | 11719m | 8.1m/s | 0°C | 0% | 0hPa | 0V | 00:00:00 | 00:00:00 | 00:00:00 | |
| 9A1FER-15 | 2026-09-02 12:10:31 | 46.02796 | 14.82515 | 102° | 71km/h | 11702m | 3.9m/s | 0°C | 0% | 0hPa | 0V | 00:00:00 | 00:00:00 | 00:00:00 | |
| 9A1FER-3 | 2026-09-02 12:10:27 | 46.02805 | 14.82416 | 94° | 66km/h | 11684m | 7.1m/s | 0°C | 0% | 0hPa | 0V | 00:00:00 | 00:00:00 | 00:00:00 | |
| 9A1FER-10 | 2026-09-02 12:10:19 | 46.02830 | 14.82216 | 98° | 62km/h | 11642m | 5.9m/s | 0°C | 0% | 0hPa | 0V | 00:00:00 | 00:00:00 | 00:00:00 | |
| 9A1FER-15 | 2026-09-02 12:10:15 | 46.02837 | 14.82127 | 95° | 60km/h | 11620m | 7.3m/s | 0°C | 0% | 0hPa | 0V | 00:00:00 | 00:00:00 | 00:00:00 | |
| 9A1FER-3 | 2026-09-02 12:10:12 | 46.02840 | 14.82058 | 99° | 62km/h | 11601m | 4.9m/s | 0°C | 0% | 0hPa | 0V | 00:00:00 | 00:00:00 | 00:00:00 | |
| OM5KV | 2026-09-02 12:10:05 | 46.02866 | 14.81903 | 101° | 58km/h | 11557m | 6.3m/s | 0°C | 0% | 0hPa | 0V | 00:00:00 | 00:00:00 | 00:00:00 | |
| 9A1FER-10 | 2026-09-02 12:10:04 | 46.02868 | 14.81881 | 94° | 62km/h | 11553m | 1.9m/s | 0°C | 0% | 0hPa | 0V | 00:00:00 | 00:00:00 | 00:00:00 | |
| 9A1FER-15 | 2026-09-02 12:09:59 | 46.02880 | 14.81772 | 110° | 73km/h | 11526m | 4.9m/s | 0°C | 0% | 0hPa | 0V | 00:00:00 | 00:00:00 | 00:00:00 | |
| 9A1FER-3 | 2026-09-02 12:09:57 | 46.02893 | 14.81731 | 117° | 64km/h | 11513m | 8.7m/s | 0°C | 0% | 0hPa | 0V | 00:00:00 | 00:00:00 | 00:00:00 | |
| 9A1FER-10 | 2026-09-02 12:09:49 | 46.02944 | 14.81570 | 109° | 73km/h | 11464m | 5.4m/s | 0°C | 0% | 0hPa | 0V | 00:00:00 | 00:00:00 | 00:00:00 | |
| 9A1FER-3 | 2026-09-02 12:09:42 | 46.02991 | 14.81410 | 120° | 77km/h | 11417m | 5.8m/s | 0°C | 0% | 0hPa | 0V | 00:00:00 | 00:00:00 | 00:00:00 | |
| 9A1FER-15 | 2026-09-02 12:09:35 | 46.03051 | 14.81237 | 118° | 78km/h | 11379m | 6.0m/s | 0°C | 0% | 0hPa | 0V | 00:00:00 | 00:00:00 | 00:00:00 | |
| 9A1FER-10 | 2026-09-02 12:09:34 | 46.03060 | 14.81212 | 118° | 80km/h | 11373m | 5.6m/s | 0°C | 0% | 0hPa | 0V | 00:00:00 | 00:00:00 | 00:00:00 | |
| 9A1FER-3 | 2026-09-02 12:09:27 | 46.03115 | 14.81037 | 114° | 80km/h | 11336m | 6.1m/s | 0°C | 0% | 0hPa | 0V | 00:00:00 | 00:00:00 | 00:00:00 | |
| OM5KV | 2026-09-02 12:09:26 | 46.03125 | 14.81010 | 121° | 82km/h | 11331m | 4.4m/s | 0°C | 0% | 0hPa | 0V | 00:00:00 | 00:00:00 | 00:00:00 | |
| OM5KV | 2026-09-02 12:09:21 | 46.03181 | 14.80881 | 122° | 86km/h | 11301m | 3.3m/s | 0°C | 0% | 0hPa | 0V | 00:00:00 | 00:00:00 | 00:00:00 | |
| 9A1FER-10 | 2026-09-02 12:09:19 | 46.03200 | 14.80830 | 115° | 86km/h | 11287m | 4.0m/s | 0°C | 0% | 0hPa | 0V | 00:00:00 | 00:00:00 | 00:00:00 | |
| OM5KV | 2026-09-02 12:09:16 | 46.03221 | 14.80753 | 112° | 80km/h | 11270m | 3.0m/s | 0°C | 0% | 0hPa | 0V | 00:00:00 | 00:00:00 | 00:00:00 | |
| OM5KV | 2026-09-02 12:09:15 | 46.03227 | 14.80726 | 112° | 80km/h | 11266m | 5.5m/s | 0°C | 0% | 0hPa | 0V | 00:00:00 | 00:00:00 | 00:00:00 | |
| 9A1FER-3 | 2026-09-02 12:09:12 | 46.03251 | 14.80648 | 117° | 84km/h | 11249m | 5.0m/s | 0°C | 0% | 0hPa | 0V | 00:00:00 | 00:00:00 | 00:00:00 | |
| OM5KV | 2026-09-02 12:09:09 | 46.03284 | 14.80561 | 116° | 91km/h | 11233m | 5.2m/s | 0°C | 0% | 0hPa | 0V | 00:00:00 | 00:00:00 | 00:00:00 | |
| OM5KV | 2026-09-02 12:09:08 | 46.03293 | 14.80532 | 112° | 86km/h | 11228m | 5.4m/s | 0°C | 0% | 0hPa | 0V | 00:00:00 | 00:00:00 | 00:00:00 | |
| 9A1FER-10 | 2026-09-02 12:09:04 | 46.03324 | 14.80413 | 110° | 82km/h | 11204m | 3.5m/s | 0°C | 0% | 0hPa | 0V | 00:00:00 | 00:00:00 | 00:00:00 | |
| OM5KV | 2026-09-02 12:09:03 | 46.03332 | 14.80385 | 114° | 80km/h | 11199m | 6.4m/s | 0°C | 0% | 0hPa | 0V | 00:00:00 | 00:00:00 | 00:00:00 | |
| OM5KV | 2026-09-02 12:09:02 | 46.03340 | 14.80360 | 119° | 73km/h | 11193m | 5.3m/s | 0°C | 0% | 0hPa | 0V | 00:00:00 | 00:00:00 | 00:00:00 | |
| OM5KV | 2026-09-02 12:08:58 | 46.03380 | 14.80229 | 110° | 84km/h | 11167m | 6.4m/s | 0°C | 0% | 0hPa | 0V | 00:00:00 | 00:00:00 | 00:00:00 | |
| 9A1FER-3 | 2026-09-02 12:08:57 | 46.03380 | 14.80228 | 109° | 84km/h | 11167m | 6.4m/s | 0°C | 0% | 0hPa | 0V | 00:00:00 | 00:00:00 | 00:00:00 | |
| OM5KV | 2026-09-02 12:08:54 | 46.03402 | 14.80137 | 114° | 89km/h | 11153m | 4.0m/s | 0°C | 0% | 0hPa | 0V | 00:00:00 | 00:00:00 | 00:00:00 | |
| OM5KV | 2026-09-02 12:08:50 | 46.03434 | 14.80030 | 110° | 80km/h | 11133m | 5.3m/s | 0°C | 0% | 0hPa | 0V | 00:00:00 | 00:00:00 | 00:00:00 | |
| 9A1FER-10 | 2026-09-02 12:08:49 | 46.03440 | 14.80001 | 105° | 82km/h | 11128m | 4.9m/s | 0°C | 0% | 0hPa | 0V | 00:00:00 | 00:00:00 | 00:00:00 | |
| 9A1FER-3 | 2026-09-02 12:08:42 | 46.03494 | 14.79801 | 117° | 77km/h | 11089m | 4.6m/s | 0°C | 0% | 0hPa | 0V | 00:00:00 | 00:00:00 | 00:00:00 | |
| OM5KV | 2026-09-02 12:08:40 | 46.03510 | 14.79750 | 110° | 73km/h | 11080m | 4.8m/s | 0°C | 0% | 0hPa | 0V | 00:00:00 | 00:00:00 | 00:00:00 | |
| OM5KV | 2026-09-02 12:08:37 | 46.03525 | 14.79667 | 106° | 82km/h | 11065m | 4.5m/s | 0°C | 0% | 0hPa | 0V | 00:00:00 | 00:00:00 | 00:00:00 | |
| OM5KV | 2026-09-02 12:08:36 | 46.03530 | 14.79639 | 108° | 82km/h | 11059m | 6.2m/s | 0°C | 0% | 0hPa | 0V | 00:00:00 | 00:00:00 | 00:00:00 | |
| 9A1FER-10 | 2026-09-02 12:08:34 | 46.03544 | 14.79585 | 113° | 77km/h | 11049m | 4.3m/s | 0°C | 0% | 0hPa | 0V | 00:00:00 | 00:00:00 | 00:00:00 | |
| OM5KV | 2026-09-02 12:08:31 | 46.03567 | 14.79511 | 119° | 77km/h | 11034m | 7.2m/s | 0°C | 0% | 0hPa | 0V | 00:00:00 | 00:00:00 | 00:00:00 | |
| 9A1FER-3 | 2026-09-02 12:08:27 | 46.03601 | 14.79411 | 108° | 78km/h | 11014m | 6.2m/s | 0°C | 0% | 0hPa | 0V | 00:00:00 | 00:00:00 | 00:00:00 | |
| OM5KV | 2026-09-02 12:08:24 | 46.03621 | 14.79326 | 112° | 80km/h | 10998m | 6.4m/s | 0°C | 0% | 0hPa | 0V | 00:00:00 | 00:00:00 | 00:00:00 | |
| 9A1FER-10 | 2026-09-02 12:08:19 | 46.03665 | 14.79205 | 116° | 77km/h | 10974m | 4.6m/s | 0°C | 0% | 0hPa | 0V | 00:00:00 | 00:00:00 | 00:00:00 | |
| OM5KV | 2026-09-02 12:08:13 | 46.03704 | 14.79048 | 111° | 73km/h | 10944m | 6.1m/s | 0°C | 0% | 0hPa | 0V | 00:00:00 | 00:00:00 | 00:00:00 | |
| 9A1FER-3 | 2026-09-02 12:08:12 | 46.03710 | 14.79023 | 109° | 75km/h | 10938m | 4.7m/s | 0°C | 0% | 0hPa | 0V | 00:00:00 | 00:00:00 | 00:00:00 | |
| OM5KV | 2026-09-02 12:08:07 | 46.03746 | 14.78896 | 117° | 77km/h | 10915m | 4.2m/s | 0°C | 0% | 0hPa | 0V | 00:00:00 | 00:00:00 | 00:00:00 | |
| OM5KV | 2026-09-02 12:08:06 | 46.03754 | 14.78870 | 117° | 77km/h | 10909m | 4.8m/s | 0°C | 0% | 0hPa | 0V | 00:00:00 | 00:00:00 | 00:00:00 | |
| 9A1FER-10 | 2026-09-02 12:08:04 | 46.03768 | 14.78820 | 107° | 71km/h | 10900m | 4.6m/s | 0°C | 0% | 0hPa | 0V | 00:00:00 | 00:00:00 | 00:00:00 | |
| OM5KV | 2026-09-02 12:08:01 | 46.03788 | 14.78743 | 113° | 78km/h | 10884m | 7.7m/s | 0°C | 0% | 0hPa | 0V | 00:00:00 | 00:00:00 | 00:00:00 | |
| 9A1FER-3 | 2026-09-02 12:07:57 | 46.03817 | 14.78645 | 114° | 69km/h | 10863m | 4.6m/s | 0°C | 0% | 0hPa | 0V | 00:00:00 | 00:00:00 | 00:00:00 | |
| 9A1FER-10 | 2026-09-02 12:07:49 | 46.03874 | 14.78460 | 108° | 69km/h | 10826m | 4.0m/s | 0°C | 0% | 0hPa | 0V | 00:00:00 | 00:00:00 | 00:00:00 | |
| OM5KV | 2026-09-02 12:07:47 | 46.03886 | 14.78410 | 115° | 75km/h | 10818m | 6.2m/s | 0°C | 0% | 0hPa | 0V | 00:00:00 | 00:00:00 | 00:00:00 | |
| OM5KV | 2026-09-02 12:07:45 | 46.03902 | 14.78364 | 123° | 71km/h | 10810m | 6.0m/s | 0°C | 0% | 0hPa | 0V | 00:00:00 | 00:00:00 | 00:00:00 | |
| 9A1FER-3 | 2026-09-02 12:07:42 | 46.03926 | 14.78297 | 112° | 69km/h | 10794m | 5.8m/s | 0°C | 0% | 0hPa | 0V | 00:00:00 | 00:00:00 | 00:00:00 | |
| OM5KV | 2026-09-02 12:07:41 | 46.03932 | 14.78274 | 109° | 69km/h | 10789m | 4.4m/s | 0°C | 0% | 0hPa | 0V | 00:00:00 | 00:00:00 | 00:00:00 | |
| OM5KV | 2026-09-02 12:07:40 | 46.03937 | 14.78250 | 107° | 68km/h | 10786m | 3.5m/s | 0°C | 0% | 0hPa | 0V | 00:00:00 | 00:00:00 | 00:00:00 | |
| OM5KV | 2026-09-02 12:07:38 | 46.03947 | 14.78201 | 109° | 71km/h | 10776m | 4.6m/s | 0°C | 0% | 0hPa | 0V | 00:00:00 | 00:00:00 | 00:00:00 | |
| 9A1FER-10 | 2026-09-02 12:07:34 | 46.03978 | 14.78112 | 119° | 69km/h | 10755m | 5.3m/s | 0°C | 0% | 0hPa | 0V | 00:00:00 | 00:00:00 | 00:00:00 | |
| OM5KV | 2026-09-02 12:07:33 | 46.03986 | 14.78090 | 118° | 66km/h | 10751m | 3.5m/s | 0°C | 0% | 0hPa | 0V | 00:00:00 | 00:00:00 | 00:00:00 | |
| OM5KV | 2026-09-02 12:07:29 | 46.04012 | 14.77994 | 109° | 71km/h | 10733m | 5.5m/s | 0°C | 0% | 0hPa | 0V | 00:00:00 | 00:00:00 | 00:00:00 | |
| OM5KV | 2026-09-02 12:07:28 | 46.04017 | 14.77970 | 109° | 64km/h | 10728m | 5.0m/s | 0°C | 0% | 0hPa | 0V | 00:00:00 | 00:00:00 | 00:00:00 | |
| 9A1FER-3 | 2026-09-02 12:07:27 | 46.04022 | 14.77948 | 113° | 69km/h | 10722m | 6.7m/s | 0°C | 0% | 0hPa | 0V | 00:00:00 | 00:00:00 | 00:00:00 | |
| OM5KV | 2026-09-02 12:07:23 | 46.04051 | 14.77855 | 116° | 69km/h | 10704m | 6.2m/s | 0°C | 0% | 0hPa | 0V | 00:00:00 | 00:00:00 | 00:00:00 | |
| 9A1FER-10 | 2026-09-02 12:07:19 | 46.04080 | 14.77763 | 121° | 68km/h | 10684m | 4.5m/s | 0°C | 0% | 0hPa | 0V | 00:00:00 | 00:00:00 | 00:00:00 | |
| OM5KV | 2026-09-02 12:07:18 | 46.04088 | 14.77742 | 118° | 69km/h | 10679m | 4.7m/s | 0°C | 0% | 0hPa | 0V | 00:00:00 | 00:00:00 | 00:00:00 | |
| OM5KV | 2026-09-02 12:07:17 | 46.04096 | 14.77719 | 112° | 68km/h | 10674m | 5.3m/s | 0°C | 0% | 0hPa | 0V | 00:00:00 | 00:00:00 | 00:00:00 | |
| OM5KV | 2026-09-02 12:07:15 | 46.04108 | 14.77674 | 115° | 68km/h | 10666m | 3.9m/s | 0°C | 0% | 0hPa | 0V | 00:00:00 | 00:00:00 | 00:00:00 | |
| 9A1FER-3 | 2026-09-02 12:07:12 | 46.04129 | 14.77603 | 114° | 69km/h | 10653m | 2.6m/s | 0°C | 0% | 0hPa | 0V | 00:00:00 | 00:00:00 | 00:00:00 | |
| OM5KV | 2026-09-02 12:07:09 | 46.04150 | 14.77538 | 113° | 62km/h | 10640m | 4.8m/s | 0°C | 0% | 0hPa | 0V | 00:00:00 | 00:00:00 | 00:00:00 | |
| 9A1FER-10 | 2026-09-02 12:07:04 | 46.04185 | 14.77426 | 111° | 66km/h | 10620m | 2.7m/s | 0°C | 0% | 0hPa | 0V | 00:00:00 | 00:00:00 | 00:00:00 | |
| OM5KV | 2026-09-02 12:07:01 | 46.04208 | 14.77351 | 116° | 62km/h | 10609m | 5.6m/s | 0°C | 0% | 0hPa | 0V | 00:00:00 | 00:00:00 | 00:00:00 | |
| 9A1FER-3 | 2026-09-02 12:06:57 | 46.04234 | 14.77264 | 117° | 62km/h | 10578m | 2.8m/s | 0°C | 0% | 0hPa | 0V | 00:00:00 | 00:00:00 | 00:00:00 | |
| OM5KV | 2026-09-02 12:06:55 | 46.04249 | 14.77225 | 124° | 60km/h | 10564m | 6.4m/s | 0°C | 0% | 0hPa | 0V | 00:00:00 | 00:00:00 | 00:00:00 | |
| 9A1FER-10 | 2026-09-02 12:06:48 | 46.04288 | 14.77068 | 120° | 64km/h | 10528m | 6.6m/s | 0°C | 0% | 0hPa | 0V | 00:00:00 | 00:00:00 | 00:00:00 | |
| OM5KV | 2026-09-02 12:06:47 | 46.04294 | 14.77051 | 116° | 58km/h | 10522m | 6.6m/s | 0°C | 0% | 0hPa | 0V | 00:00:00 | 00:00:00 | 00:00:00 | |
| 9A1FER-3 | 2026-09-02 12:06:42 | 46.04320 | 14.76941 | 117° | 64km/h | 10495m | 6.3m/s | 0°C | 0% | 0hPa | 0V | 00:00:00 | 00:00:00 | 00:00:00 | |
| OM5KV | 2026-09-02 12:06:39 | 46.04353 | 14.76865 | 112° | 64km/h | 10471m | 6.3m/s | 0°C | 0% | 0hPa | 0V | 00:00:00 | 00:00:00 | 00:00:00 | |
| OM5KV | 2026-09-02 12:06:34 | 46.04374 | 14.76773 | 113° | 78km/h | 10444m | 4.9m/s | 0°C | 0% | 0hPa | 0V | 00:00:00 | 00:00:00 | 00:00:00 | |
| 9A1FER-10 | 2026-09-02 12:06:33 | 46.04382 | 14.76746 | 111° | 64km/h | 10438m | 6.5m/s | 0°C | 0% | 0hPa | 0V | 00:00:00 | 00:00:00 | 00:00:00 | |
| OM5KV | 2026-09-02 12:06:28 | 46.04409 | 14.76645 | 110° | 62km/h | 10413m | 4.4m/s | 0°C | 0% | 0hPa | 0V | 00:00:00 | 00:00:00 | 00:00:00 | |
| 9A1FER-3 | 2026-09-02 12:06:26 | 46.04417 | 14.76597 | 102° | 66km/h | 10401m | 4.9m/s | 0°C | 0% | 0hPa | 0V | 00:00:00 | 00:00:00 | 00:00:00 | |
| OM5KV | 2026-09-02 12:06:19 | 46.04450 | 14.76442 | 113° | 62km/h | 10367m | 5.5m/s | 0°C | 0% | 0hPa | 0V | 00:00:00 | 00:00:00 | 00:00:00 | |
| 9A1FER-10 | 2026-09-02 12:06:18 | 46.04455 | 14.76421 | 104° | 64km/h | 10361m | 5.6m/s | 0°C | 0% | 0hPa | 0V | 00:00:00 | 00:00:00 | 00:00:00 | |
| OM5KV | 2026-09-02 12:06:13 | 46.04484 | 14.76306 | 112° | 68km/h | 10334m | 6.3m/s | 0°C | 0% | 0hPa | 0V | 00:00:00 | 00:00:00 | 00:00:00 | |
| OM5KV | 2026-09-02 12:06:11 | 46.04496 | 14.76258 | 107° | 71km/h | 10321m | 6.9m/s | 0°C | 0% | 0hPa | 0V | 00:00:00 | 00:00:00 | 00:00:00 | |
| 9A1FER-3 | 2026-09-02 12:06:10 | 46.04500 | 14.76234 | 105° | 64km/h | 10316m | 3.9m/s | 0°C | 0% | 0hPa | 0V | 00:00:00 | 00:00:00 | 00:00:00 | |
| OM5KV | 2026-09-02 12:06:05 | 46.04521 | 14.76127 | 112° | 68km/h | 10292m | 4.5m/s | 0°C | 0% | 0hPa | 0V | 00:00:00 | 00:00:00 | 00:00:00 | |
| 9A1FER-10 | 2026-09-02 12:06:03 | 46.04532 | 14.76081 | 107° | 64km/h | 10283m | 2.7m/s | 0°C | 0% | 0hPa | 0V | 00:00:00 | 00:00:00 | 00:00:00 | |
| OM5KV | 2026-09-02 12:05:52 | 46.04577 | 14.75834 | 100° | 68km/h | 10230m | 8.0m/s | 0°C | 0% | 0hPa | 0V | 00:00:00 | 00:00:00 | 00:00:00 | |
| 9A1FER-10 | 2026-09-02 12:05:48 | 46.04593 | 14.75740 | 108° | 64km/h | 10209m | 5.2m/s | 0°C | 0% | 0hPa | 0V | 00:00:00 | 00:00:00 | 00:00:00 | |
| OM5KV | 2026-09-02 12:05:45 | 46.04602 | 14.75671 | 98° | 66km/h | 10194m | 5.1m/s | 0°C | 0% | 0hPa | 0V | 00:00:00 | 00:00:00 | 00:00:00 | |
| 9A1FER-3 | 2026-09-02 12:05:41 | 46.04618 | 14.75561 | 109° | 66km/h | 10168m | 4.2m/s | 0°C | 0% | 0hPa | 0V | 00:00:00 | 00:00:00 | 00:00:00 | |
| 9A1FER-10 | 2026-09-02 12:05:32 | 46.04653 | 14.75381 | 108° | 66km/h | 10126m | 4.3m/s | 0°C | 0% | 0hPa | 0V | 00:00:00 | 00:00:00 | 00:00:00 | |
| 9A1FER-3 | 2026-09-02 12:05:24 | 46.04679 | 14.75191 | 99° | 64km/h | 10086m | 3.7m/s | 0°C | 0% | 0hPa | 0V | 00:00:00 | 00:00:00 | 00:00:00 | |
| 9A1FER-10 | 2026-09-02 12:05:17 | 46.04705 | 14.75034 | 109° | 66km/h | 10050m | 4.1m/s | 0°C | 0% | 0hPa | 0V | 00:00:00 | 00:00:00 | 00:00:00 | |
| 9A1FER-3 | 2026-09-02 12:05:08 | 46.04736 | 14.74826 | 112° | 62km/h | 10002m | 3.2m/s | 0°C | 0% | 0hPa | 0V | 00:00:00 | 00:00:00 | 00:00:00 | |
| 9A1FER-10 | 2026-09-02 12:04:59 | 46.04770 | 14.74629 | 109° | 58km/h | 9960m | 3.5m/s | 0°C | 0% | 0hPa | 0V | 00:00:00 | 00:00:00 | 00:00:00 | |
| 9A1FER-3 | 2026-09-02 12:04:51 | 46.04795 | 14.74452 | 105° | 64km/h | 9917m | 6.7m/s | 0°C | 0% | 0hPa | 0V | 00:00:00 | 00:00:00 | 00:00:00 | |
| 9A1FER-3 | 2026-09-02 12:04:36 | 46.04842 | 14.74112 | 106° | 68km/h | 9836m | 5.5m/s | 0°C | 0% | 0hPa | 0V | 00:00:00 | 00:00:00 | 00:00:00 | |
| 9A1FER-3 | 2026-09-02 12:04:20 | 46.04879 | 14.73725 | 98° | 64km/h | 9759m | 3.1m/s | 0°C | 0% | 0hPa | 0V | 00:00:00 | 00:00:00 | 00:00:00 | |
| 9A1FER-3 | 2026-09-02 12:04:05 | 46.04919 | 14.73382 | 100° | 66km/h | 9693m | 3.5m/s | 0°C | 0% | 0hPa | 0V | 00:00:00 | 00:00:00 | 00:00:00 | |
| 9A1FER-3 | 2026-09-02 12:03:51 | 46.04953 | 14.73024 | 97° | 60km/h | 9613m | 3.5m/s | 0°C | 0% | 0hPa | 0V | 00:00:00 | 00:00:00 | 00:00:00 | |
| 9A1FER-3 | 2026-09-02 12:00:43 | 46.05262 | 14.69033 | 99° | 57km/h | 8658m | 5.7m/s | 0°C | 0% | 0hPa | 0V | 00:00:00 | 00:00:00 | 00:00:00 | |
| 9A1FER-3 | 2026-09-02 12:00:27 | 46.05255 | 14.68698 | 90° | 55km/h | 8587m | 2.8m/s | 0°C | 0% | 0hPa | 0V | 00:00:00 | 00:00:00 | 00:00:00 | |
| 9A1FER-3 | 2026-09-02 12:00:09 | 46.05238 | 14.68342 | 99° | 58km/h | 8495m | 3.3m/s | 0°C | 0% | 0hPa | 0V | 00:00:00 | 00:00:00 | 00:00:00 | |
| 9A1FER-3 | 2026-09-02 11:59:54 | 46.05238 | 14.68012 | 93° | 60km/h | 8411m | 3.7m/s | 0°C | 0% | 0hPa | 0V | 00:00:00 | 00:00:00 | 00:00:00 |